SU2613 / VP-BMI 7700 Squawk Report (16th of June, 2019)

Aircraft B738 Reg No. VP-BMI Age 2 years old
Model 737 Jet engines 2 First flight 15-03-17
Registered 30-03-17 Rollout N/A Delivered 30-03-17
Construction No. 44433 Line No. 6334 Series 800
ADSHEX 42433F Airline name Aeroflot Russian Airlines Owner N/A
Airfield based Moscow-Sheremetyevo~Moscow~RA First tracked 2017-07-13 01:40:00

Flight history for VP-BMI

Route Flight No Date Playback
Sheremetyevo (SVO) - Khrabrovo (KGD) SU1000 2019-07-24 04:43:00
Simferopol Intl (SIP) - Sheremetyevo (SVO) SU1627 2019-07-24 04:40:00
Sheremetyevo (SVO) - Simferopol Intl (SIP) SU1626 2019-07-23 23:30:00
Gumrak (VOG) - Sheremetyevo (SVO) SU1183 2019-07-23 18:08:00
Sheremetyevo (SVO) - Gumrak (VOG) SU1182 2019-07-23 13:32:00
Sochi (AER) - Sheremetyevo (SVO) SU1121 2019-07-23 11:49:00
Sheremetyevo (SVO) - Sochi (AER) SU1120 2019-07-23 06:48:00
Koltsovo (SVX) - Sheremetyevo (SVO) SU1415 2019-07-22 23:32:00
Sheremetyevo (SVO) - Koltsovo (SVX) SU1414 2019-07-22 18:13:00
Kazan (KZN) - Sheremetyevo (SVO) SU1277 2019-07-22 14:47:00
Gumrak (VOG) - Sheremetyevo (SVO) SU1189 2019-07-22 09:42:00
Sheremetyevo (SVO) - Kazan (KZN) SU1276 2019-07-22 09:20:00
Gumrak (VOG) - Sheremetyevo (SVO) SU1189 2019-07-22 08:01:00
Sochi (AER) - Gumrak (VOG) SU2827 2019-07-22 02:40:00
Gumrak (VOG) - Sochi (AER) SU2826 2019-07-22 01:42:00
Sheremetyevo (SVO) - Gumrak (VOG) SU1184 2019-07-21 23:04:00
Sheremetyevo (SVO) - Nizhny Novgorod (GOJ) SU1224 2019-07-21 18:51:00
Nizhny Novgorod (GOJ) - Sheremetyevo (SVO) SU1225 2019-07-21 18:46:00
Sheremetyevo (SVO) - Nizhny Novgorod (GOJ) SU1224 2019-07-21 17:40:00
Pulkovo (LED) - Sheremetyevo (SVO) SU17 2019-07-21 15:36:00
Time Lat Lon Altitude Heading Speed Vertical Rate
2019-06-16 17:05:05 GMT 55.963818 37.398003 0 345 0 0
2019-06-16 17:04:54 GMT 55.963821 37.398018 0 345 0 0
2019-06-16 17:04:41 GMT 55.963783 37.398022 0 345 2 0
2019-06-16 17:04:29 GMT 55.963612 37.398106 0 340 5 0
2019-06-16 17:04:21 GMT 55.963470 37.398190 0 329 7 0
2019-06-16 17:04:11 GMT 55.963261 37.398598 0 261 7 0
2019-06-16 17:03:59 GMT 55.963360 37.399315 0 253 8 0
2019-06-16 17:03:48 GMT 55.963543 37.399895 0 227 8 0
2019-06-16 17:03:39 GMT 55.963726 37.400436 0 255 9 0
We lost coverage of the aircraft here for a total of 5 minutes
2019-06-16 16:58:37 GMT 55.978321 37.443893 0 219 10 0
2019-06-16 16:58:37 GMT 55.978321 37.443893 0 165 12 0
2019-06-16 16:58:37 GMT 55.978321 37.443893 0 168 3 0
2019-06-16 16:58:38 GMT 55.978321 37.443893 0 188 6 0
2019-06-16 16:58:38 GMT 55.978321 37.443893 625 256 152 -768
2019-06-16 16:58:35 GMT 55.978592 37.445816 650 256 150 -832
2019-06-16 16:58:30 GMT 55.979599 37.452724 725 256 149 -768
2019-06-16 16:58:25 GMT 55.980461 37.458401 800 255 150 -768
2019-06-16 16:58:21 GMT 55.981346 37.464497 850 255 150 -704
2019-06-16 16:58:10 GMT 55.983208 37.476852 975 255 150 -768
2019-06-16 16:57:58 GMT 55.985165 37.490070 1,150 256 148 -768
2019-06-16 16:57:52 GMT 55.986237 37.497108 1,200 256 148 -704
2019-06-16 16:57:49 GMT 55.986740 37.500584 1,250 256 148 -768
2019-06-16 16:57:40 GMT 55.988434 37.512070 1,375 255 149 -832
2019-06-16 16:57:32 GMT 55.989761 37.520973 1,525 255 150 -832
2019-06-16 16:57:25 GMT 55.991169 37.530327 1,575 255 150 -832
2019-06-16 16:57:22 GMT 55.991638 37.533543 1,650 256 152 -704
2019-06-16 16:57:18 GMT 55.992371 37.538284 1,650 256 151 -704
2019-06-16 16:57:12 GMT 55.993469 37.545776 1,750 255 151 -832
2019-06-16 16:57:08 GMT 55.994202 37.550606 1,800 255 151 -832
2019-06-16 16:57:01 GMT 55.995590 37.559681 1,900 256 149 -768
2019-06-16 16:56:58 GMT 55.995827 37.561481 1,925 256 149 -768
2019-06-16 16:56:55 GMT 55.996429 37.565601 2,000 256 151 -704
2019-06-16 16:56:51 GMT 55.997223 37.570744 2,025 255 151 -640
2019-06-16 16:56:48 GMT 55.997734 37.574100 2,075 184 185 64
2019-06-16 16:56:40 GMT 55.999054 37.583229 2,175 256 152 -768
2019-06-16 16:56:34 GMT 56.000198 37.591221 2,225 256 153 -768
2019-06-16 16:56:28 GMT 56.001251 37.598209 2,550 184 185 64
2019-06-16 16:56:25 GMT 56.002014 37.603539 2,350 256 154 -768
2019-06-16 16:56:18 GMT 56.003220 37.611942 2,450 257 157 -896
2019-06-16 16:56:14 GMT 56.003769 37.615856 2,475 258 158 -768
2019-06-16 16:56:07 GMT 56.004868 37.624680 2,550 258 159 -576
2019-06-16 16:56:04 GMT 56.005417 37.629173 2,575 258 160 -192
2019-06-16 16:55:57 GMT 56.006577 37.638390 2,600 257 165 -128
2019-06-16 16:55:54 GMT 56.007111 37.642490 2,600 256 167 -64
2019-06-16 16:55:47 GMT 56.008301 37.650490 2,575 251 173 256
2019-06-16 16:55:42 GMT 56.009884 37.657700 2,575 184 185 64
2019-06-16 16:55:35 GMT 56.012741 37.666958 2,575 230 178 -128
2019-06-16 16:55:32 GMT 56.014252 37.670620 2,575 225 178 -64
2019-06-16 16:55:25 GMT 56.018356 37.676754 2,575 207 181 0
2019-06-16 16:55:20 GMT 56.021896 37.679691 2,575 200 182 64
2019-06-16 16:55:16 GMT 56.026108 37.681442 2,575 186 184 0
2019-06-16 16:55:10 GMT 56.031830 37.682190 2,575 183 185 0
2019-06-16 16:55:01 GMT 56.038422 37.682850 2,575 184 185 0
2019-06-16 16:54:58 GMT 56.040466 37.683022 2,575 184 185 0
2019-06-16 16:54:52 GMT 56.047028 37.683769 2,575 184 185 64
2019-06-16 16:54:39 GMT 56.058014 37.685104 2,600 186 184 -640
2019-06-16 16:54:30 GMT 56.065235 37.687225 2,775 194 181 -1152
2019-06-16 16:54:25 GMT 56.068542 37.688599 2,850 193 182 -1088
2019-06-16 16:54:21 GMT 56.072433 37.689762 2,925 178 184 -960
2019-06-16 16:54:17 GMT 56.080830 37.688000 3,075 156 189 -768
2019-06-16 16:54:11 GMT 56.080830 37.688000 3,075 153 189 -704
2019-06-16 16:54:06 GMT 56.084518 37.684521 3,150 139 192 -704
2019-06-16 16:54:01 GMT 56.088181 37.678696 3,200 125 195 -704
2019-06-16 16:53:56 GMT 56.090652 37.671951 3,275 112 194 -704
2019-06-16 16:53:51 GMT 56.092255 37.663631 3,325 96 200 -640
2019-06-16 16:53:43 GMT 56.092701 37.652805 3,400 84 201 -768
2019-06-16 16:53:40 GMT 56.092438 37.646236 3,400 82 201 -896
2019-06-16 16:53:32 GMT 56.091110 37.633919 3,575 78 202 -1024
2019-06-16 16:53:29 GMT 56.090607 37.629635 3,625 77 203 -1024
2019-06-16 16:53:23 GMT 56.089233 37.618187 3,725 77 212 -576
2019-06-16 16:53:19 GMT 56.088593 37.613026 3,725 77 208 -320
2019-06-16 16:53:13 GMT 56.087082 37.600876 3,775 77 212 -704
2019-06-16 16:53:09 GMT 56.086349 37.595131 3,825 77 213 -896
2019-06-16 16:53:04 GMT 56.085064 37.584743 3,950 77 218 -320
2019-06-16 16:53:00 GMT 56.084553 37.580364 3,925 77 217 -448
2019-06-16 16:52:55 GMT 56.083191 37.569328 3,975 77 219 -960
2019-06-16 16:52:52 GMT 56.082645 37.564747 4,025 77 220 -1152
2019-06-16 16:52:48 GMT 56.081955 37.558842 4,100 77 220 -1152
2019-06-16 16:52:41 GMT 56.080410 37.546120 4,225 77 220 -960
2019-06-16 16:52:38 GMT 56.079758 37.541142 4,250 77 220 -896
2019-06-16 16:52:31 GMT 56.077469 37.522305 4,400 77 221 -896
2019-06-16 16:52:28 GMT 56.077469 37.522305 4,400 77 221 -960
2019-06-16 16:52:20 GMT 56.075893 37.509384 4,625 77 223 -768
2019-06-16 16:52:17 GMT 56.075104 37.503120 4,575 77 223 -704
2019-06-16 16:52:10 GMT 56.073475 37.489731 4,650 77 225 -640
2019-06-16 16:52:07 GMT 56.072891 37.484936 4,675 77 226 -704
2019-06-16 16:51:59 GMT 56.070915 37.468784 4,800 77 227 -832
2019-06-16 16:51:50 GMT 56.069000 37.453224 4,900 77 230 -768
2019-06-16 16:51:46 GMT 56.068073 37.445698 4,950 77 231 -704
2019-06-16 16:51:36 GMT 56.065704 37.426010 5,050 77 236 -576
2019-06-16 16:51:26 GMT 56.062908 37.403042 5,150 77 240 -384
2019-06-16 16:51:18 GMT 56.061745 37.393684 5,200 77 244 -448
2019-06-16 16:51:14 GMT 56.060577 37.384312 5,250 77 246 -512
2019-06-16 16:51:04 GMT 56.058060 37.363754 5,325 77 252 -704
2019-06-16 16:50:58 GMT 56.056763 37.353085 5,400 77 255 -1088
2019-06-16 16:50:52 GMT 56.054901 37.337952 5,500 77 255 -1344
2019-06-16 16:50:45 GMT 56.053364 37.325535 5,700 77 254 -1344
2019-06-16 16:50:42 GMT 56.052704 37.320557 5,750 77 254 -1344
2019-06-16 16:50:38 GMT 56.051502 37.310600 5,850 77 254 -1216
2019-06-16 16:50:32 GMT 56.050056 37.298927 5,950 77 255 -640
2019-06-16 16:50:27 GMT 56.048813 37.289181 5,975 77 256 -128
2019-06-16 16:50:21 GMT 56.047256 37.276443 6,000 77 259 -64
2019-06-16 16:50:17 GMT 56.046158 37.267204 6,000 77 261 -512
2019-06-16 16:50:13 GMT 56.045311 37.260220 6,050 77 262 -832
2019-06-16 16:50:09 GMT 56.044285 37.251720 6,100 77 263 -832
2019-06-16 16:50:06 GMT 56.043457 37.245068 6,150 77 264 -832
2019-06-16 16:50:02 GMT 56.042496 37.237160 6,200 77 265 -768
2019-06-16 16:49:59 GMT 56.041634 37.230263 6,250 77 265 -832
2019-06-16 16:49:56 GMT 56.040802 37.223759 6,300 77 265 -832
2019-06-16 16:49:53 GMT 56.039795 37.216019 6,350 76 265 -832
2019-06-16 16:49:46 GMT 56.037956 37.201767 6,425 77 267 -896
2019-06-16 16:49:41 GMT 56.036556 37.191036 6,500 77 268 -896
2019-06-16 16:49:36 GMT 56.035126 37.179482 6,575 77 269 -896
2019-06-16 16:49:31 GMT 56.033844 37.169247 6,625 77 270 -896
2019-06-16 16:49:28 GMT 56.032879 37.161682 6,700 77 273 -896
2019-06-16 16:49:23 GMT 56.030880 37.145374 6,800 77 277 -896
2019-06-16 16:49:12 GMT 56.028030 37.122635 6,950 77 278 -832
2019-06-16 16:49:06 GMT 56.026783 37.112846 7,025 77 279 -768
2019-06-16 16:49:02 GMT 56.025787 37.104660 7,075 77 280 -832
2019-06-16 16:48:58 GMT 56.024921 37.098000 7,100 77 281 -896
2019-06-16 16:48:53 GMT 56.023384 37.085464 7,175 77 282 -768
2019-06-16 16:48:50 GMT 56.022400 37.077858 7,225 77 283 -832
2019-06-16 16:48:39 GMT 56.017410 37.038326 7,450 77 284 -768
2019-06-16 16:48:31 GMT 56.016865 37.033882 7,475 77 284 -768
2019-06-16 16:48:23 GMT 56.014481 37.015354 7,575 77 282 -768
2019-06-16 16:48:20 GMT 56.013519 37.007614 7,625 77 282 -768
2019-06-16 16:48:10 GMT 56.011047 36.987274 7,700 77 281 -576
2019-06-16 16:48:07 GMT 56.010349 36.981869 7,750 77 280 -576
2019-06-16 16:48:02 GMT 56.008484 36.966415 7,825 77 280 -640
2019-06-16 16:47:59 GMT 56.007694 36.960239 7,850 77 280 -640
2019-06-16 16:47:55 GMT 56.006996 36.954575 7,875 77 280 -704
2019-06-16 16:47:51 GMT 56.005833 36.944878 7,925 77 284 -640
2019-06-16 16:47:48 GMT 56.004913 36.937698 7,950 77 284 -576
2019-06-16 16:47:42 GMT 56.002029 36.915146 8,000 76 285 -832
2019-06-16 16:47:38 GMT 56.001038 36.907455 8,025 76 286 -576
2019-06-16 16:47:31 GMT 55.999039 36.892345 8,100 76 285 -832
2019-06-16 16:47:25 GMT 55.998001 36.884434 8,150 76 285 -832
2019-06-16 16:47:19 GMT 55.995850 36.868370 8,250 77 285 -832
2019-06-16 16:47:16 GMT 55.995358 36.864624 8,300 77 285 -768
2019-06-16 16:47:13 GMT 55.994247 36.855801 8,300 77 285 -768
2019-06-16 16:47:06 GMT 55.992279 36.840904 8,400 76 285 -768
2019-06-16 16:47:02 GMT 55.991180 36.832413 8,450 76 285 -768
2019-06-16 16:46:56 GMT 55.989449 36.819050 8,550 77 285 -832
2019-06-16 16:46:53 GMT 55.988251 36.809525 8,600 77 285 -896
2019-06-16 16:46:46 GMT 55.986237 36.793640 8,675 77 285 -896
2019-06-16 16:46:43 GMT 55.983162 36.769180 9,025 77 286 -896
2019-06-16 16:46:35 GMT 55.982464 36.763599 8,875 77 287 -832
2019-06-16 16:46:27 GMT 55.980789 36.750214 8,975 77 287 -384
2019-06-16 16:46:22 GMT 55.979439 36.739311 8,975 77 287 -64
2019-06-16 16:46:17 GMT 55.978043 36.728378 9,000 77 288 -128
2019-06-16 16:46:14 GMT 55.977016 36.720345 9,000 77 289 -512
2019-06-16 16:46:10 GMT 55.976040 36.712704 9,050 77 289 -704
2019-06-16 16:46:07 GMT 55.974976 36.704159 9,075 77 290 -704
2019-06-16 16:46:01 GMT 55.973248 36.690559 9,150 77 291 -704
2019-06-16 16:45:50 GMT 55.970036 36.665840 9,250 76 295 -704
2019-06-16 16:45:41 GMT 55.966915 36.641979 9,425 76 304 -704
2019-06-16 16:45:35 GMT 55.965240 36.629360 9,450 76 304 -704
2019-06-16 16:45:30 GMT 55.963577 36.616768 9,525 76 307 -768
2019-06-16 16:45:20 GMT 55.960026 36.589794 9,650 76 315 -768
2019-06-16 16:45:13 GMT 55.958210 36.575630 9,725 76 318 -768
2019-06-16 16:45:10 GMT 55.956905 36.565590 9,800 76 321 -832
2019-06-16 16:45:06 GMT 55.955521 36.555176 9,825 76 324 -768
2019-06-16 16:44:58 GMT 55.953091 36.537094 9,900 76 330 -704
2019-06-16 16:44:51 GMT 55.950485 36.517307 9,975 76 340 -192
2019-06-16 16:44:48 GMT 55.948948 36.505768 9,975 76 342 -64
2019-06-16 16:44:44 GMT 55.947693 36.495998 9,975 76 356 0
2019-06-16 16:44:36 GMT 55.944901 36.475025 9,975 76 356 -64
2019-06-16 16:44:33 GMT 55.943871 36.467228 10,000 76 356 -64
2019-06-16 16:44:27 GMT 55.941742 36.451054 10,000 76 356 0
2019-06-16 16:44:24 GMT 55.940380 36.440880 10,000 76 356 0
2019-06-16 16:44:16 GMT 55.937263 36.417706 10,000 76 357 0
2019-06-16 16:44:11 GMT 55.935585 36.404915 10,000 76 357 64
2019-06-16 16:44:05 GMT 55.932953 36.384972 10,000 76 357 0
2019-06-16 16:43:55 GMT 55.929337 36.357506 10,000 76 357 64
2019-06-16 16:43:52 GMT 55.928463 36.350842 10,000 76 357 64
2019-06-16 16:43:44 GMT 55.924927 36.323891 10,000 76 356 0
2019-06-16 16:43:36 GMT 55.921967 36.301243 10,000 76 356 0
2019-06-16 16:43:32 GMT 55.921017 36.293938 10,000 76 356 0
2019-06-16 16:43:23 GMT 55.915421 36.251888 10,000 76 355 0
2019-06-16 16:43:14 GMT 55.914230 36.242813 10,000 76 355 0
2019-06-16 16:43:11 GMT 55.912777 36.231880 10,000 76 355 0
2019-06-16 16:43:04 GMT 55.910110 36.211769 10,000 76 355 0
2019-06-16 16:43:01 GMT 55.908585 36.200294 10,000 76 355 0
2019-06-16 16:42:57 GMT 55.907471 36.192055 10,000 76 355 0
2019-06-16 16:42:51 GMT 55.905029 36.173733 10,000 76 355 0
2019-06-16 16:42:48 GMT 55.904251 36.167824 10,000 76 355 0
2019-06-16 16:42:43 GMT 55.902191 36.152428 10,000 76 355 0
2019-06-16 16:42:38 GMT 55.900223 36.137695 10,000 76 355 0
2019-06-16 16:42:32 GMT 55.898296 36.123302 10,000 76 354 -64
2019-06-16 16:42:29 GMT 55.896950 36.113346 10,000 76 354 0
2019-06-16 16:42:19 GMT 55.892899 36.083679 10,000 76 355 0
2019-06-16 16:42:11 GMT 55.890152 36.063137 10,000 76 355 0
2019-06-16 16:42:08 GMT 55.888847 36.053783 10,000 76 355 0
2019-06-16 16:42:01 GMT 55.886078 36.033157 10,000 76 354 0
2019-06-16 16:41:57 GMT 55.884247 36.019508 10,000 76 354 0
2019-06-16 16:41:50 GMT 55.882145 36.004086 10,000 76 354 0
2019-06-16 16:41:45 GMT 55.880219 35.989796 10,000 76 354 -64
2019-06-16 16:41:40 GMT 55.878204 35.975063 10,000 76 354 0
2019-06-16 16:41:34 GMT 55.876099 35.959167 10,000 76 354 0
2019-06-16 16:41:30 GMT 55.874268 35.945850 10,000 76 353 0
2019-06-16 16:41:25 GMT 55.872231 35.930698 10,000 76 354 0
2019-06-16 16:41:19 GMT 55.870239 35.916138 10,000 76 354 0
2019-06-16 16:41:14 GMT 55.868038 35.900146 10,000 76 354 0
2019-06-16 16:41:09 GMT 55.866165 35.886425 10,000 76 354 0
2019-06-16 16:41:03 GMT 55.863991 35.870533 10,000 76 354 -64
2019-06-16 16:40:59 GMT 55.862221 35.857742 10,000 76 354 0
2019-06-16 16:40:52 GMT 55.859707 35.839462 10,000 76 354 64
2019-06-16 16:40:48 GMT 55.858200 35.828331 10,000 76 354 0
2019-06-16 16:40:41 GMT 55.855453 35.808605 10,000 76 354 0
2019-06-16 16:40:37 GMT 55.853806 35.796703 10,000 76 354 0
2019-06-16 16:40:31 GMT 55.851059 35.776978 10,000 76 354 0
2019-06-16 16:40:28 GMT 55.850117 35.770023 10,000 76 355 0
2019-06-16 16:40:17 GMT 55.845886 35.739357 10,000 76 355 -64
2019-06-16 16:40:09 GMT 55.842667 35.715954 10,000 76 355 0
2019-06-16 16:40:06 GMT 55.841877 35.710285 10,000 76 355 64
2019-06-16 16:39:58 GMT 55.838379 35.684677 10,000 76 355 0
2019-06-16 16:39:45 GMT 55.833527 35.649551 10,000 76 356 0
2019-06-16 16:39:41 GMT 55.831924 35.637650 10,000 76 356 0
2019-06-16 16:39:35 GMT 55.829865 35.622742 10,000 76 356 64
2019-06-16 16:39:31 GMT 55.827713 35.607273 10,000 76 356 0
2019-06-16 16:39:25 GMT 55.825676 35.592957 10,000 76 356 -64
2019-06-16 16:39:13 GMT 55.820938 35.558914 10,000 76 357 0
2019-06-16 16:39:04 GMT 55.817230 35.532448 10,000 76 357 0
2019-06-16 16:38:54 GMT 55.812084 35.495281 10,000 76 357 -64
2019-06-16 16:38:43 GMT 55.808716 35.470943 10,000 76 357 64
2019-06-16 16:38:31 GMT 55.804169 35.438374 10,000 75 357 0
2019-06-16 16:38:20 GMT 55.799702 35.406792 10,000 75 357 0
2019-06-16 16:38:11 GMT 55.795898 35.379887 10,000 75 357 0
2019-06-16 16:37:59 GMT 55.791412 35.348598 10,000 75 357 64
2019-06-16 16:37:48 GMT 55.786743 35.315800 10,000 75 356 0
2019-06-16 16:37:39 GMT 55.782894 35.289116 10,000 75 355 -64
2019-06-16 16:37:27 GMT 55.778687 35.259289 10,000 76 355 0
2019-06-16 16:37:20 GMT 55.775391 35.235817 10,000 76 355 0
2019-06-16 16:37:17 GMT 55.774338 35.228493 10,000 76 355 0
2019-06-16 16:37:09 GMT 55.769909 35.197277 10,000 75 354 0
2019-06-16 16:36:59 GMT 55.766975 35.176765 10,000 75 355 0
2019-06-16 16:36:56 GMT 55.765778 35.168404 10,000 75 355 0
2019-06-16 16:36:48 GMT 55.762737 35.147408 10,000 75 355 0
2019-06-16 16:36:44 GMT 55.761341 35.137539 10,000 75 355 0
2019-06-16 16:36:37 GMT 55.758408 35.117382 10,000 75 355 0
2019-06-16 16:36:33 GMT 55.756805 35.106396 10,000 75 356 -64
2019-06-16 16:36:22 GMT 55.752312 35.075226 10,000 75 356 64
2019-06-16 16:36:11 GMT 55.747795 35.043812 10,000 75 357 -64
2019-06-16 16:36:00 GMT 55.743374 35.013168 10,000 75 358 0
2019-06-16 16:35:54 GMT 55.740856 34.995487 10,000 75 360 0
2019-06-16 16:35:50 GMT 55.738953 34.982468 10,000 75 361 0
2019-06-16 16:35:44 GMT 55.736809 34.967506 10,000 75 361 0
2019-06-16 16:35:40 GMT 55.734604 34.952419 10,000 75 361 0
2019-06-16 16:35:33 GMT 55.732040 34.934608 10,000 75 362 0
2019-06-16 16:35:29 GMT 55.730057 34.920986 10,000 75 362 0
2019-06-16 16:35:24 GMT 55.728104 34.907513 10,000 75 362 0
2019-06-16 16:35:17 GMT 55.723251 34.874100 10,000 75 362 0
2019-06-16 16:35:08 GMT 55.721466 34.862034 10,000 75 362 0
2019-06-16 16:35:01 GMT 55.718857 34.843971 10,000 75 362 -64
2019-06-16 16:34:51 GMT 55.714417 34.813957 10,000 75 362 0
2019-06-16 16:34:41 GMT 55.710022 34.783962 10,000 75 362 0
2019-06-16 16:34:32 GMT 55.706451 34.759579 10,000 75 362 0
2019-06-16 16:34:29 GMT 55.705154 34.750874 10,000 75 362 0
2019-06-16 16:34:23 GMT 55.702267 34.731045 10,000 75 362 0
2019-06-16 16:34:19 GMT 55.700871 34.721603 10,000 75 362 64
2019-06-16 16:34:07 GMT 55.696060 34.689079 10,000 75 362 0
2019-06-16 16:34:01 GMT 55.693283 34.669933 10,000 75 362 -64
2019-06-16 16:33:56 GMT 55.691372 34.657059 10,000 75 362 0
2019-06-16 16:33:50 GMT 55.688690 34.638893 10,000 75 362 0
2019-06-16 16:33:45 GMT 55.686768 34.625992 10,000 75 361 0
2019-06-16 16:33:35 GMT 55.682247 34.595432 10,000 75 361 0
2019-06-16 16:33:24 GMT 55.677704 34.564987 10,000 75 361 0
2019-06-16 16:33:14 GMT 55.673080 34.533859 10,000 75 361 64
2019-06-16 16:33:03 GMT 55.668331 34.501965 10,000 75 361 0
2019-06-16 16:32:51 GMT 55.663788 34.471519 10,000 75 362 0
2019-06-16 16:32:41 GMT 55.659348 34.441807 10,000 75 362 0
2019-06-16 16:32:29 GMT 55.654037 34.406521 10,000 75 362 64
2019-06-16 16:32:19 GMT 55.649689 34.377720 10,000 75 363 0
2019-06-16 16:32:08 GMT 55.645008 34.346352 10,000 75 363 -64
2019-06-16 16:31:56 GMT 55.639980 34.312878 10,000 75 363 0
2019-06-16 16:31:45 GMT 55.635269 34.281422 10,000 75 363 0
2019-06-16 16:31:34 GMT 55.630280 34.248463 10,000 75 364 0
2019-06-16 16:31:24 GMT 55.625702 34.218334 10,000 74 364 0
2019-06-16 16:31:12 GMT 55.621078 34.187992 10,000 74 364 64
2019-06-16 16:31:02 GMT 55.616501 34.158077 10,000 74 363 0
2019-06-16 16:30:52 GMT 55.611584 34.126453 10,000 74 363 0
2019-06-16 16:30:41 GMT 55.606796 34.095402 10,000 74 362 0
2019-06-16 16:30:30 GMT 55.602039 34.064400 10,000 74 362 0
2019-06-16 16:30:19 GMT 55.597275 34.033150 10,000 74 362 0
2019-06-16 16:30:08 GMT 55.592171 34.000195 10,000 74 361 0
2019-06-16 16:29:56 GMT 55.587570 33.970142 10,000 74 361 0
2019-06-16 16:29:46 GMT 55.583130 33.941429 10,000 74 360 0
2019-06-16 16:29:34 GMT 55.577927 33.907845 10,000 74 360 0
2019-06-16 16:29:24 GMT 55.572968 33.875675 10,000 74 359 0
2019-06-16 16:29:13 GMT 55.568207 33.844883 10,000 74 358 0
2019-06-16 16:29:02 GMT 55.563866 33.816860 10,000 74 358 0
2019-06-16 16:28:52 GMT 55.559353 33.787766 10,000 74 358 0
2019-06-16 16:28:41 GMT 55.554657 33.757408 10,000 74 359 0
2019-06-16 16:28:30 GMT 55.549854 33.726482 10,000 74 359 64
2019-06-16 16:28:19 GMT 55.544827 33.693695 10,000 74 360 0
We lost coverage of the aircraft here for a total of 35 minutes
2019-06-16 15:53:30 GMT 54.438858 28.163210 8,000 26 354 0
2019-06-16 15:53:19 GMT 54.423149 28.149635 8,000 26 354 64
2019-06-16 15:53:05 GMT 54.402832 28.131786 8,000 27 354 0
2019-06-16 15:52:59 GMT 54.393730 28.123753 8,000 27 353 0
2019-06-16 15:52:49 GMT 54.378551 28.110518 8,000 26 354 0
2019-06-16 15:52:38 GMT 54.362679 28.096619 8,000 27 354 -64
2019-06-16 15:52:27 GMT 54.346298 28.082024 8,000 27 355 0
2019-06-16 15:52:15 GMT 54.329582 28.067322 8,000 27 355 0
2019-06-16 15:52:05 GMT 54.315147 28.054504 8,000 27 356 0
2019-06-16 15:51:53 GMT 54.296806 28.038275 8,000 27 354 64
2019-06-16 15:51:42 GMT 54.281540 28.024876 8,000 27 352 -64
2019-06-16 15:51:32 GMT 54.266510 28.011763 8,000 26 351 192
2019-06-16 15:51:21 GMT 54.251282 27.998495 8,000 27 351 0
2019-06-16 15:51:10 GMT 54.235683 27.984844 8,000 27 351 0
2019-06-16 15:51:00 GMT 54.220551 27.971663 8,000 27 351 0
2019-06-16 15:50:57 GMT 54.215435 27.967152 8,000 27 352 64
2019-06-16 15:50:49 GMT 54.205032 27.958164 8,000 27 352 -64
2019-06-16 15:50:43 GMT 54.195091 27.949541 8,000 27 353 -64
2019-06-16 15:50:37 GMT 54.184757 27.940495 8,000 27 354 0
2019-06-16 15:50:28 GMT 54.174637 27.931641 8,000 27 355 64
2019-06-16 15:50:20 GMT 54.161900 27.920460 8,000 26 356 0
2019-06-16 15:50:14 GMT 54.153053 27.912867 8,000 26 356 64
2019-06-16 15:50:06 GMT 54.141464 27.902849 8,000 26 356 0
2019-06-16 15:49:55 GMT 54.123734 27.887539 8,000 26 357 0
2019-06-16 15:49:52 GMT 54.120758 27.884949 8,000 26 357 0
2019-06-16 15:49:43 GMT 54.107525 27.873526 8,025 26 360 -64
2019-06-16 15:49:32 GMT 54.091976 27.860037 8,075 26 362 -512
2019-06-16 15:49:22 GMT 54.076492 27.846731 8,225 26 364 -2112
2019-06-16 15:49:13 GMT 54.061615 27.833862 8,700 26 365 -2240
2019-06-16 15:49:00 GMT 54.042866 27.817545 9,000 27 366 -256
2019-06-16 15:48:49 GMT 54.027145 27.803885 9,000 27 365 64
2019-06-16 15:48:41 GMT 54.014748 27.793068 9,000 26 365 0
2019-06-16 15:48:37 GMT 54.008137 27.787413 9,000 26 365 0
2019-06-16 15:48:31 GMT 53.998920 27.779415 9,000 26 366 0
2019-06-16 15:48:27 GMT 53.993729 27.774929 9,000 26 365 -64
2019-06-16 15:48:21 GMT 53.983276 27.766006 9,025 26 363 -128
2019-06-16 15:48:16 GMT 53.976574 27.760189 9,075 26 360 -384
2019-06-16 15:48:10 GMT 53.967358 27.752274 9,125 27 360 -640
2019-06-16 15:48:05 GMT 53.960632 27.746443 9,200 27 360 -1536
2019-06-16 15:48:01 GMT 53.954407 27.741028 9,300 27 360 -2112
2019-06-16 15:47:54 GMT 53.945023 27.732866 9,575 27 364 -2240
2019-06-16 15:47:50 GMT 53.937939 27.726583 9,675 27 366 -1792
2019-06-16 15:47:44 GMT 53.929417 27.719233 9,875 27 372 -1728
2019-06-16 15:47:40 GMT 53.923370 27.713955 9,975 27 376 -1664
2019-06-16 15:47:30 GMT 53.906845 27.699594 10,275 26 386 -1728
2019-06-16 15:47:19 GMT 53.889954 27.685310 10,600 26 394 -1984
2019-06-16 15:47:09 GMT 53.874252 27.672298 11,025 25 399 -3200
2019-06-16 15:46:59 GMT 53.856674 27.657846 11,575 25 404 -3456
2019-06-16 15:46:50 GMT 53.842392 27.646152 12,075 25 406 -3520
2019-06-16 15:46:47 GMT 53.836731 27.641602 12,275 25 406 -3648
2019-06-16 15:46:40 GMT 53.824394 27.631504 12,725 25 407 -3328
2019-06-16 15:46:36 GMT 53.817459 27.625849 12,950 25 410 -3200
2019-06-16 15:46:28 GMT 53.803848 27.614763 13,400 25 412 -3456
2019-06-16 15:46:25 GMT 53.799728 27.611389 13,525 25 413 -3392
2019-06-16 15:46:18 GMT 53.786819 27.600796 13,950 28 417 -3712
2019-06-16 15:46:13 GMT 53.778351 27.593025 14,300 31 419 -4096
2019-06-16 15:46:08 GMT 53.770020 27.583923 14,625 35 422 -3776
2019-06-16 15:45:59 GMT 53.755188 27.566267 15,175 35 426 -3392
2019-06-16 15:45:51 GMT 53.742783 27.551357 15,650 35 427 -3904
2019-06-16 15:45:47 GMT 53.735870 27.543039 15,925 35 431 -3520
2019-06-16 15:45:38 GMT 53.722401 27.526649 16,450 35 431 -4224
2019-06-16 15:45:29 GMT 53.701401 27.501135 17,300 35 436 -3456
2019-06-16 15:45:16 GMT 53.685299 27.480846 17,925 39 440 -3904
2019-06-16 15:45:07 GMT 53.672310 27.461943 18,425 43 446 -3648
2019-06-16 15:45:04 GMT 53.668442 27.455933 18,600 44 446 -3712
2019-06-16 15:44:57 GMT 53.658188 27.438198 19,050 50 451 -3968
2019-06-16 15:44:53 GMT 53.653564 27.428701 19,275 54 454 -4032
2019-06-16 15:44:47 GMT 53.645050 27.407593 19,775 62 460 -3456
2019-06-16 15:44:43 GMT 53.641434 27.396763 19,975 62 461 -3520
2019-06-16 15:44:37 GMT 53.635254 27.376204 20,375 63 463 -3904
2019-06-16 15:44:32 GMT 53.631409 27.363335 20,575 63 464 -4096
2019-06-16 15:44:25 GMT 53.623474 27.336731 21,200 63 466 -3840
2019-06-16 15:44:20 GMT 53.619194 27.322433 21,475 63 468 -3648
2019-06-16 15:44:15 GMT 53.614819 27.307812 22,400 63 475 -3840
2019-06-16 15:44:10 GMT 53.609417 27.289877 22,075 63 473 -3648
2019-06-16 15:44:04 GMT 53.603039 27.268551 22,475 63 475 -3840
2019-06-16 15:43:58 GMT 53.598198 27.252314 22,800 63 477 -3520
2019-06-16 15:43:55 GMT 53.594429 27.239712 23,000 63 479 -3264
2019-06-16 15:43:44 GMT 53.584122 27.203482 23,825 63 487 -3136
2019-06-16 15:43:41 GMT 53.581440 27.194071 23,800 63 490 -2944
2019-06-16 15:43:33 GMT 53.572968 27.165958 24,225 62 494 -3328
2019-06-16 15:43:27 GMT 53.566544 27.144793 24,625 62 495 -3648
2019-06-16 15:43:24 GMT 53.562073 27.130091 25,000 62 493 -5376
2019-06-16 15:43:20 GMT 53.559814 27.122810 26,575 62 490 -5760
2019-06-16 15:43:13 GMT 53.552032 27.097385 25,925 62 487 -5632
2019-06-16 15:43:10 GMT 53.548855 27.087114 26,575 62 487 -5568
2019-06-16 15:43:03 GMT 53.536652 27.047791 26,900 62 482 -4736
2019-06-16 15:42:58 GMT 53.536652 27.047791 27,275 62 485 -5248
2019-06-16 15:42:53 GMT 53.531296 27.030449 27,725 62 483 -4928
2019-06-16 15:42:49 GMT 53.527176 27.017185 28,050 62 482 -5056
2019-06-16 15:42:42 GMT 53.520355 26.995293 28,600 62 482 -4928
2019-06-16 15:42:35 GMT 53.513077 26.971748 29,150 62 482 -4736
2019-06-16 15:42:32 GMT 53.509235 26.959318 29,725 62 481 -4544
2019-06-16 15:42:26 GMT 53.503929 26.942112 29,825 62 481 -4544
2019-06-16 15:42:22 GMT 53.499252 26.927019 30,375 62 482 -4352
2019-06-16 15:42:17 GMT 53.493504 26.908264 30,600 62 481 -4288
2019-06-16 15:42:12 GMT 53.488476 26.892109 30,950 62 480 -4608
2019-06-16 15:42:06 GMT 53.483231 26.875071 31,350 62 480 -4224
2019-06-16 15:42:03 GMT 53.480747 26.866985 31,500 62 480 -4288
2019-06-16 15:42:00 GMT 53.477417 26.856236 31,750 62 479 -4416
2019-06-16 15:41:56 GMT 53.472179 26.839275 32,125 62 479 -4416
2019-06-16 15:41:51 GMT 53.465195 26.816685 32,600 62 479 -3968
2019-06-16 15:41:45 GMT 53.461800 26.805672 32,825 62 480 -3584
2019-06-16 15:41:39 GMT 53.454956 26.783537 33,225 62 480 -3776
2019-06-16 15:41:34 GMT 53.451370 26.771797 33,450 62 479 -4288
2019-06-16 15:41:30 GMT 53.446438 26.755829 33,725 62 479 -4224
2019-06-16 15:41:27 GMT 53.443405 26.746138 34,000 62 479 -4032
2019-06-16 15:41:24 GMT 53.440659 26.737270 34,175 62 479 -3456
2019-06-16 15:41:21 GMT 53.433823 26.715439 34,400 62 480 -3136
2019-06-16 15:41:18 GMT 53.433823 26.715439 34,525 62 480 -3456
2019-06-16 15:41:13 GMT 53.429764 26.702427 34,775 62 478 -4672
2019-06-16 15:41:09 GMT 53.425629 26.689184 35,100 62 471 -5504
2019-06-16 15:41:06 GMT 53.422649 26.679731 35,375 62 473 -5632
2019-06-16 15:41:03 GMT 53.419533 26.669716 35,650 62 470 -5440
2019-06-16 15:40:58 GMT 53.414520 26.653774 36,075 62 465 -4928
2019-06-16 15:40:55 GMT 53.411476 26.644108 36,325 62 463 -4032
2019-06-16 15:40:52 GMT 53.408478 26.634705 36,525 62 463 -4032
2019-06-16 15:40:49 GMT 53.404587 26.622383 36,750 62 462 -2368
2019-06-16 15:40:45 GMT 53.401421 26.612440 36,875 62 462 -1728
2019-06-16 15:40:42 GMT 53.397720 26.600569 36,950 62 462 -1088
2019-06-16 15:40:38 GMT 53.393883 26.588449 37,000 62 461 -448
2019-06-16 15:40:35 GMT 53.391357 26.580400 37,000 62 462 0
2019-06-16 15:40:32 GMT 53.387878 26.569336 37,000 62 462 -64
2019-06-16 15:40:28 GMT 53.383804 26.556389 37,000 62 462 0
2019-06-16 15:40:25 GMT 53.380985 26.547413 37,000 62 465 -64
2019-06-16 15:40:19 GMT 53.373962 26.524998 37,000 62 465 -64
2019-06-16 15:40:15 GMT 53.370930 26.515341 37,000 62 465 -64
2019-06-16 15:40:11 GMT 53.367371 26.504045 37,000 62 465 0
2019-06-16 15:40:07 GMT 53.362785 26.489248 37,025 62 466 0
2019-06-16 15:40:01 GMT 53.357071 26.470852 37,000 62 466 -64
2019-06-16 15:39:57 GMT 53.352905 26.457512 37,000 62 466 64
2019-06-16 15:39:51 GMT 53.346676 26.437548 37,000 62 467 -64
2019-06-16 15:39:47 GMT 53.343063 26.425886 37,000 62 467 128
2019-06-16 15:39:42 GMT 53.338120 26.410271 37,000 62 466 64
2019-06-16 15:39:39 GMT 53.334320 26.398264 37,000 62 465 64
2019-06-16 15:39:28 GMT 53.324051 26.365814 37,000 62 463 -64
2019-06-16 15:39:24 GMT 53.319809 26.352434 37,000 62 461 64
2019-06-16 15:39:18 GMT 53.313629 26.332973 36,975 62 459 -64
2019-06-16 15:39:08 GMT 53.304565 26.304173 37,000 62 459 -128
2019-06-16 15:39:05 GMT 53.301662 26.294888 37,000 62 458 -128
2019-06-16 15:38:58 GMT 53.294769 26.273077 37,025 62 456 0
2019-06-16 15:38:55 GMT 53.292297 26.265093 37,025 62 456 0
2019-06-16 15:38:46 GMT 53.282063 26.232525 37,000 62 455 -64
2019-06-16 15:38:37 GMT 53.273666 26.206081 37,000 61 453 -64
2019-06-16 15:38:34 GMT 53.271076 26.197868 37,000 61 453 -192
2019-06-16 15:38:24 GMT 53.261856 26.168884 37,025 62 449 128
2019-06-16 15:38:14 GMT 53.251804 26.137281 37,000 61 448 64
2019-06-16 15:38:04 GMT 53.241283 26.104809 37,000 61 447 -192
2019-06-16 15:37:56 GMT 53.233337 26.080444 37,000 61 447 0
2019-06-16 15:37:52 GMT 53.230434 26.071526 37,000 61 447 0
2019-06-16 15:37:45 GMT 53.223404 26.049917 37,000 61 446 0
2019-06-16 15:37:41 GMT 53.219635 26.038324 37,000 61 446 0
2019-06-16 15:37:34 GMT 53.212234 26.015383 37,000 61 445 0
2019-06-16 15:37:31 GMT 53.209946 26.008247 37,000 61 445 0
2019-06-16 15:37:23 GMT 53.201843 25.982901 37,000 61 445 -64
2019-06-16 15:37:20 GMT 53.198776 25.973171 37,000 61 445 -64
2019-06-16 15:37:12 GMT 53.191727 25.951199 37,000 61 445 -64
2019-06-16 15:37:09 GMT 53.188770 25.941952 37,000 61 444 0
2019-06-16 15:37:02 GMT 53.181198 25.918318 37,000 61 444 -64
2019-06-16 15:36:58 GMT 53.177971 25.908266 37,000 61 444 -64
2019-06-16 15:36:55 GMT 53.173416 25.894304 37,000 61 444 64
2019-06-16 15:36:52 GMT 53.171547 25.888393 37,000 61 443 0
2019-06-16 15:36:49 GMT 53.167637 25.876438 37,000 61 444 64
2019-06-16 15:36:44 GMT 53.161331 25.857107 37,000 61 444 128
2019-06-16 15:36:38 GMT 53.158001 25.846710 37,000 61 444 -64
2019-06-16 15:36:31 GMT 53.151249 25.825626 37,000 61 442 -64
2019-06-16 15:36:23 GMT 53.143570 25.801716 37,000 61 441 -64
2019-06-16 15:36:20 GMT 53.141056 25.793961 37,000 61 441 0
2019-06-16 15:36:16 GMT 53.137146 25.781681 37,000 61 441 64
2019-06-16 15:36:09 GMT 53.130768 25.761971 37,000 61 442 128
2019-06-16 15:36:03 GMT 53.120667 25.730869 36,975 61 442 128
2019-06-16 15:35:59 GMT 53.120667 25.730869 36,975 61 443 128
2019-06-16 15:35:55 GMT 53.116699 25.718760 37,000 61 443 0
2019-06-16 15:35:49 GMT 53.110703 25.700335 36,975 61 444 -128
2019-06-16 15:35:42 GMT 53.103928 25.679600 37,000 61 444 -64
2019-06-16 15:35:39 GMT 53.099899 25.667280 37,000 61 446 0
2019-06-16 15:35:32 GMT 53.093758 25.648682 37,000 61 443 128
2019-06-16 15:35:28 GMT 53.090126 25.637617 37,000 61 443 64
2019-06-16 15:35:18 GMT 53.080124 25.606995 37,000 61 445 -64
2019-06-16 15:35:13 GMT 53.075638 25.593185 37,000 61 446 0
2019-06-16 15:35:07 GMT 53.069458 25.574265 37,000 61 447 64
2019-06-16 15:35:02 GMT 53.064987 25.560556 37,000 61 448 0
2019-06-16 15:34:56 GMT 53.059170 25.542664 37,000 61 450 -64
2019-06-16 15:34:51 GMT 53.054260 25.527725 37,000 61 450 0
2019-06-16 15:34:45 GMT 53.048229 25.509392 37,000 61 450 64
2019-06-16 15:34:42 GMT 53.043823 25.495834 37,000 61 450 -64
2019-06-16 15:34:35 GMT 53.037804 25.477530 37,000 61 450 0
2019-06-16 15:34:31 GMT 53.033848 25.465445 37,000 61 450 0
2019-06-16 15:34:24 GMT 53.027115 25.445023 37,000 61 450 0
2019-06-16 15:34:20 GMT 53.022949 25.432358 37,000 61 450 -64
2019-06-16 15:34:13 GMT 53.014984 25.408173 37,000 61 449 -64
2019-06-16 15:34:09 GMT 53.011360 25.397173 37,000 61 449 -64
2019-06-16 15:34:02 GMT 53.004799 25.377163 37,000 61 449 0
2019-06-16 15:33:59 GMT 52.995998 25.350246 37,000 60 446 128
2019-06-16 15:33:53 GMT 52.995998 25.350246 37,000 61 449 -64
2019-06-16 15:33:48 GMT 52.991455 25.336533 37,000 61 449 0
2019-06-16 15:33:42 GMT 52.985321 25.317841 37,000 61 448 -64
2019-06-16 15:33:38 GMT 52.981056 25.304731 37,000 61 447 0
2019-06-16 15:33:31 GMT 52.973980 25.283386 37,000 61 447 64
2019-06-16 15:33:28 GMT 52.970627 25.273186 37,000 61 448 64
2019-06-16 15:33:21 GMT 52.963646 25.252153 37,000 61 447 -128
2019-06-16 15:33:16 GMT 52.959320 25.239105 37,000 61 447 0
2019-06-16 15:33:10 GMT 52.952892 25.219822 37,000 60 447 64
2019-06-16 15:33:06 GMT 52.948837 25.207748 37,000 60 446 -64
2019-06-16 15:32:59 GMT 52.942558 25.189138 37,000 60 446 128
2019-06-16 15:32:53 GMT 52.936878 25.172190 37,000 60 446 128
2019-06-16 15:32:48 GMT 52.931477 25.156101 37,000 61 445 0
2019-06-16 15:32:43 GMT 52.926964 25.142683 37,000 61 445 0
2019-06-16 15:32:38 GMT 52.920547 25.123520 37,000 61 446 64
2019-06-16 15:32:28 GMT 52.911507 25.096462 37,000 60 446 -64
2019-06-16 15:32:25 GMT 52.909058 25.089188 37,000 60 446 -64
2019-06-16 15:32:22 GMT 52.905968 25.080139 37,000 60 446 64
2019-06-16 15:32:17 GMT 52.900589 25.064163 37,000 60 446 64
2019-06-16 15:32:12 GMT 52.895538 25.049143 37,000 60 447 0
2019-06-16 15:32:08 GMT 52.891388 25.036774 37,000 60 451 0
2019-06-16 15:32:05 GMT 52.888325 25.027639 37,000 61 448 -192
2019-06-16 15:31:57 GMT 52.879803 25.002214 37,000 61 450 128
2019-06-16 15:31:52 GMT 52.875427 24.988953 37,000 61 449 0
2019-06-16 15:31:46 GMT 52.869461 24.971085 37,000 61 450 0
2019-06-16 15:31:42 GMT 52.865341 24.958725 37,000 61 450 64
2019-06-16 15:31:33 GMT 52.852570 24.920759 37,000 61 452 -64
2019-06-16 15:31:24 GMT 52.846939 24.903946 37,000 61 453 0
2019-06-16 15:31:19 GMT 52.841537 24.887924 37,000 61 454 128
2019-06-16 15:31:14 GMT 52.831345 24.857510 37,000 61 453 0
2019-06-16 15:31:08 GMT 52.831345 24.857510 37,000 61 453 0
2019-06-16 15:31:05 GMT 52.827480 24.845972 37,000 60 454 -64
2019-06-16 15:31:00 GMT 52.820263 24.824551 37,000 60 454 0
2019-06-16 15:30:52 GMT 52.814957 24.808855 37,000 61 453 64
2019-06-16 15:30:48 GMT 52.809559 24.792847 37,000 61 453 128
2019-06-16 15:30:44 GMT 52.801643 24.769226 37,000 61 453 64
2019-06-16 15:30:39 GMT 52.801643 24.769226 37,000 60 454 0
2019-06-16 15:30:36 GMT 52.798103 24.758633 37,000 60 454 0
2019-06-16 15:30:33 GMT 52.795128 24.749922 37,000 60 454 0
2019-06-16 15:30:28 GMT 52.790936 24.737522 37,000 60 454 0
2019-06-16 15:30:22 GMT 52.783768 24.716335 37,000 60 454 0
2019-06-16 15:30:17 GMT 52.779602 24.704132 37,000 60 454 0
2019-06-16 15:30:12 GMT 52.774036 24.687613 37,000 60 454 0
2019-06-16 15:30:08 GMT 52.768524 24.671478 37,000 60 454 64
2019-06-16 15:30:02 GMT 52.763283 24.655910 37,000 60 453 0
2019-06-16 15:29:59 GMT 52.756165 24.635010 37,000 60 453 -64
2019-06-16 15:29:56 GMT 52.756165 24.635010 37,000 60 453 -64
2019-06-16 15:29:49 GMT 52.749298 24.614868 37,025 60 453 64
2019-06-16 15:29:41 GMT 52.741360 24.591560 37,000 60 452 -64
2019-06-16 15:29:37 GMT 52.738705 24.583794 37,000 60 452 -64
2019-06-16 15:29:32 GMT 52.732910 24.566879 37,000 60 452 -64
2019-06-16 15:29:28 GMT 52.727600 24.551239 37,000 60 452 0
2019-06-16 15:29:24 GMT 52.724121 24.541092 37,000 60 452 64
2019-06-16 15:29:21 GMT 52.717484 24.521637 37,000 60 451 0
2019-06-16 15:29:17 GMT 52.717484 24.521637 37,000 60 451 64
2019-06-16 15:29:13 GMT 52.713318 24.509430 37,000 60 451 64
2019-06-16 15:29:09 GMT 52.708958 24.496687 37,000 60 451 64
2019-06-16 15:29:05 GMT 52.705261 24.485779 37,000 60 451 0
2019-06-16 15:29:01 GMT 52.700718 24.472517 37,000 60 451 0
2019-06-16 15:28:56 GMT 52.695923 24.458469 37,000 60 451 -64
2019-06-16 15:28:52 GMT 52.691666 24.446030 37,000 60 450 0
2019-06-16 15:28:48 GMT 52.687031 24.432495 37,000 60 450 0
2019-06-16 15:28:43 GMT 52.682655 24.419624 37,000 60 450 0
2019-06-16 15:28:39 GMT 52.676418 24.401421 37,000 60 450 0
2019-06-16 15:28:36 GMT 52.676418 24.401421 37,000 60 450 0
2019-06-16 15:28:30 GMT 52.669373 24.380722 37,000 60 450 64
2019-06-16 15:28:26 GMT 52.665943 24.370735 37,000 60 451 0
2019-06-16 15:28:19 GMT 52.657700 24.346695 37,000 60 451 0
2019-06-16 15:28:15 GMT 52.646950 24.315491 37,000 60 451 0
2019-06-16 15:28:08 GMT 52.646950 24.315491 37,000 60 451 0
2019-06-16 15:28:05 GMT 52.644333 24.307938 37,000 60 451 0
2019-06-16 15:28:02 GMT 52.639874 24.294931 37,000 60 451 0
2019-06-16 15:27:57 GMT 52.636230 24.284363 37,000 60 451 0
2019-06-16 15:27:53 GMT 52.631447 24.270525 37,000 60 451 0
2019-06-16 15:27:47 GMT 52.625290 24.252777 37,000 60 451 0
2019-06-16 15:27:44 GMT 52.622086 24.243622 37,000 60 451 0
2019-06-16 15:27:41 GMT 52.612793 24.216843 37,000 60 451 -64
2019-06-16 15:27:35 GMT 52.612793 24.216843 37,000 60 451 -64
2019-06-16 15:27:32 GMT 52.609909 24.208527 37,000 60 451 0
2019-06-16 15:27:26 GMT 52.600388 24.181137 37,000 60 451 64
2019-06-16 15:27:23 GMT 52.600388 24.181137 37,000 60 451 64
2019-06-16 15:27:20 GMT 52.597046 24.171677 37,000 60 452 0
2019-06-16 15:27:17 GMT 52.593842 24.162445 37,000 60 452 0
2019-06-16 15:27:14 GMT 52.592018 24.157209 37,000 60 451 0
2019-06-16 15:27:10 GMT 52.587875 24.145361 37,000 60 451 -64
2019-06-16 15:27:05 GMT 52.581963 24.128408 37,000 60 452 0
2019-06-16 15:27:02 GMT 52.576424 24.112715 37,000 60 453 64
2019-06-16 15:26:56 GMT 52.572098 24.100418 37,000 60 451 -128
2019-06-16 15:26:53 GMT 52.569580 24.093176 37,000 60 451 -128
2019-06-16 15:26:50 GMT 52.566101 24.083176 37,025 60 450 -128
2019-06-16 15:26:45 GMT 52.560516 24.067230 37,025 60 450 0
2019-06-16 15:26:40 GMT 52.555710 24.053389 37,000 60 450 64
2019-06-16 15:26:34 GMT 52.549934 24.036516 37,000 60 451 0
2019-06-16 15:26:31 GMT 52.546120 24.025530 37,000 60 452 0
2019-06-16 15:26:28 GMT 52.544128 24.019699 36,975 60 452 0
2019-06-16 15:26:24 GMT 52.536530 23.997574 37,000 60 454 -64
2019-06-16 15:26:21 GMT 52.536530 23.997574 37,000 60 454 64
2019-06-16 15:26:18 GMT 52.532433 23.985744 37,000 60 453 64
2019-06-16 15:26:13 GMT 52.528194 23.973579 37,000 60 453 -64
2019-06-16 15:26:09 GMT 52.524170 23.962097 37,000 60 453 0
2019-06-16 15:26:06 GMT 52.520000 23.949961 37,000 60 452 0
2019-06-16 15:26:02 GMT 52.517395 23.942583 37,000 60 453 0
2019-06-16 15:25:58 GMT 52.513229 23.930511 37,000 60 453 0
2019-06-16 15:25:52 GMT 52.506546 23.911438 37,000 60 453 0
2019-06-16 15:25:47 GMT 52.501877 23.898087 37,000 60 452 0
2019-06-16 15:25:41 GMT 52.495190 23.878941 37,000 60 453 -64
2019-06-16 15:25:37 GMT 52.490753 23.866348 37,000 60 451 0
2019-06-16 15:25:31 GMT 52.485031 23.850021 37,000 60 451 0
2019-06-16 15:25:27 GMT 52.480865 23.838196 37,000 60 451 0
2019-06-16 15:25:23 GMT 52.476425 23.825455 37,000 60 451 -64
2019-06-16 15:25:19 GMT 52.472031 23.813019 37,000 60 450 64
2019-06-16 15:25:16 GMT 52.468826 23.803864 37,000 59 451 0
2019-06-16 15:25:13 GMT 52.466309 23.796768 37,000 60 451 64
2019-06-16 15:25:10 GMT 52.462967 23.787384 37,000 60 450 0
2019-06-16 15:25:06 GMT 52.457947 23.773081 37,000 59 448 64
2019-06-16 15:25:00 GMT 52.451103 23.753618 37,000 59 449 0
2019-06-16 15:24:53 GMT 52.445564 23.738081 37,000 59 449 64
2019-06-16 15:24:50 GMT 52.441360 23.726120 37,000 59 449 0
2019-06-16 15:24:44 GMT 52.436096 23.711166 37,000 59 449 64
2019-06-16 15:24:41 GMT 52.429642 23.693008 37,000 59 448 64
2019-06-16 15:24:33 GMT 52.424385 23.678205 37,000 59 448 64
2019-06-16 15:24:30 GMT 52.421127 23.668976 37,000 59 448 64
2019-06-16 15:24:27 GMT 52.412933 23.645782 37,000 59 448 0
2019-06-16 15:24:22 GMT 52.412933 23.645782 37,000 59 448 0
2019-06-16 15:24:16 GMT 52.406975 23.629002 37,000 60 448 0
2019-06-16 15:24:12 GMT 52.403248 23.618486 37,000 60 448 0
2019-06-16 15:24:09 GMT 52.400223 23.609934 37,000 60 448 0
2019-06-16 15:24:03 GMT 52.392403 23.587725 37,000 60 447 -64
2019-06-16 15:24:00 GMT 52.389423 23.579250 37,000 60 447 0
2019-06-16 15:23:54 GMT 52.383728 23.563004 37,000 59 445 0
2019-06-16 15:23:51 GMT 52.380661 23.554230 37,000 60 446 64
2019-06-16 15:23:48 GMT 52.377686 23.545761 37,000 59 444 0
2019-06-16 15:23:44 GMT 52.374153 23.535698 37,000 59 445 0
2019-06-16 15:23:41 GMT 52.370499 23.525391 37,000 59 445 -64
2019-06-16 15:23:34 GMT 52.363174 23.504715 37,000 59 445 0
2019-06-16 15:23:30 GMT 52.359558 23.494644 37,000 59 445 0
2019-06-16 15:23:25 GMT 52.353577 23.478020 37,000 59 444 0
2019-06-16 15:23:19 GMT 52.347946 23.462402 37,000 59 444 0
2019-06-16 15:23:16 GMT 52.344589 23.452988 37,000 59 444 0
2019-06-16 15:23:12 GMT 52.340775 23.442471 37,000 59 444 0
2019-06-16 15:23:09 GMT 52.337585 23.433685 37,000 59 444 0
2019-06-16 15:23:05 GMT 52.333374 23.421988 37,000 59 444 0
2019-06-16 15:23:02 GMT 52.330582 23.414219 37,000 59 444 0
2019-06-16 15:22:58 GMT 52.326530 23.402998 37,000 59 444 128
2019-06-16 15:22:52 GMT 52.319782 23.384241 37,000 59 444 128
2019-06-16 15:22:48 GMT 52.315063 23.371124 37,000 59 444 -64
2019-06-16 15:22:42 GMT 52.308468 23.352774 37,000 59 443 0
2019-06-16 15:22:36 GMT 52.303207 23.338100 37,000 59 443 0
2019-06-16 15:22:32 GMT 52.298973 23.326250 37,000 59 443 0
2019-06-16 15:22:29 GMT 52.296272 23.318794 37,000 59 443 -64
2019-06-16 15:22:26 GMT 52.292725 23.308792 37,000 59 443 0
2019-06-16 15:22:21 GMT 52.287800 23.295095 37,000 59 443 0
2019-06-16 15:22:18 GMT 52.284439 23.285751 37,000 59 443 -64
2019-06-16 15:22:15 GMT 52.281700 23.278147 37,000 59 442 0
2019-06-16 15:22:12 GMT 52.278671 23.269653 37,000 59 443 -64
2019-06-16 15:22:08 GMT 52.274811 23.258841 37,000 59 443 -64
2019-06-16 15:22:04 GMT 52.270569 23.246841 37,000 59 442 64
2019-06-16 15:22:00 GMT 52.265594 23.232866 37,000 59 443 64
2019-06-16 15:21:56 GMT 52.261871 23.222507 37,000 59 443 64
2019-06-16 15:21:52 GMT 52.258347 23.212585 37,000 59 443 64
2019-06-16 15:21:48 GMT 52.253677 23.199514 37,000 59 442 0
2019-06-16 15:21:41 GMT 52.245903 23.177935 37,000 59 442 -64
2019-06-16 15:21:38 GMT 52.242874 23.169479 37,000 59 443 -64
2019-06-16 15:21:35 GMT 52.239487 23.159943 37,000 59 442 -64
2019-06-16 15:21:32 GMT 52.237755 23.155256 37,000 59 442 -64
2019-06-16 15:21:28 GMT 52.232346 23.140182 37,000 59 442 -64
2019-06-16 15:21:24 GMT 52.227795 23.127398 37,000 59 442 0
2019-06-16 15:21:20 GMT 52.225159 23.120041 37,000 59 442 0
2019-06-16 15:21:17 GMT 52.220901 23.108292 37,000 59 441 0
2019-06-16 15:21:11 GMT 52.214905 23.091736 37,000 59 441 64
2019-06-16 15:21:06 GMT 52.210289 23.078979 37,000 59 441 0
2019-06-16 15:21:00 GMT 52.205029 23.064383 37,000 59 441 0
2019-06-16 15:20:55 GMT 52.199116 23.048140 37,000 59 441 0
2019-06-16 15:20:52 GMT 52.195904 23.039272 37,000 59 441 0
2019-06-16 15:20:49 GMT 52.193573 23.032913 37,000 59 441 0
2019-06-16 15:20:44 GMT 52.187210 23.015518 37,000 59 440 0
2019-06-16 15:20:40 GMT 52.183502 23.005219 37,000 59 440 0
2019-06-16 15:20:36 GMT 52.179565 22.994461 37,000 59 440 0
2019-06-16 15:20:33 GMT 52.175903 22.984467 37,000 59 440 -64
2019-06-16 15:20:28 GMT 52.171646 22.972794 37,000 59 440 0
2019-06-16 15:20:24 GMT 52.167206 22.960587 37,000 59 440 -64
2019-06-16 15:20:19 GMT 52.160614 22.942352 37,000 59 440 0
2019-06-16 15:20:15 GMT 52.156384 22.930508 37,000 59 440 0
2019-06-16 15:20:11 GMT 52.154194 22.924543 37,000 59 440 0
2019-06-16 15:20:08 GMT 52.150360 22.913895 37,000 59 440 0
2019-06-16 15:20:03 GMT 52.142838 22.893311 37,000 59 440 -64
2019-06-16 15:19:58 GMT 52.140041 22.885620 37,000 59 439 0
2019-06-16 15:19:54 GMT 52.131317 22.861710 37,000 59 439 64
2019-06-16 15:19:50 GMT 52.131317 22.861710 37,000 59 439 64
2019-06-16 15:19:47 GMT 52.128708 22.854614 37,000 59 439 64
2019-06-16 15:19:43 GMT 52.124634 22.843552 37,000 59 439 0
2019-06-16 15:19:39 GMT 52.120377 22.831955 37,000 59 439 0
2019-06-16 15:19:36 GMT 52.117233 22.823313 37,000 59 439 0
2019-06-16 15:19:29 GMT 52.106617 22.794434 37,000 59 439 0
2019-06-16 15:19:26 GMT 52.106617 22.794434 37,000 59 439 0
2019-06-16 15:19:22 GMT 52.103313 22.785410 37,000 59 439 0
2019-06-16 15:19:17 GMT 52.097122 22.768555 37,000 59 439 0
2019-06-16 15:19:14 GMT 52.094833 22.762299 37,000 59 439 0
2019-06-16 15:19:10 GMT 52.089661 22.748184 37,000 59 439 0
2019-06-16 15:19:07 GMT 52.087097 22.741089 37,000 59 439 0
2019-06-16 15:19:01 GMT 52.076706 22.712860 37,000 59 439 64
2019-06-16 15:18:53 GMT 52.072952 22.702713 37,000 59 439 0
2019-06-16 15:18:50 GMT 52.069336 22.692795 37,000 59 439 64
2019-06-16 15:18:42 GMT 52.058296 22.662991 37,000 59 441 0
2019-06-16 15:18:34 GMT 52.051918 22.645647 37,000 59 442 64
2019-06-16 15:18:30 GMT 52.048382 22.635996 37,000 59 443 -64
2019-06-16 15:18:21 GMT 52.040001 22.613237 37,000 59 444 -64
2019-06-16 15:18:18 GMT 52.035873 22.601929 37,000 59 444 -64
2019-06-16 15:18:12 GMT 52.029785 22.585373 37,000 59 445 64
2019-06-16 15:18:09 GMT 52.025574 22.573929 37,000 59 445 64
2019-06-16 15:18:01 GMT 52.017841 22.552891 37,000 59 445 -64
2019-06-16 15:17:50 GMT 52.006210 22.521133 37,000 59 448 -64
2019-06-16 15:17:47 GMT 52.000992 22.506985 37,000 59 447 64
2019-06-16 15:17:40 GMT 51.993542 22.486816 37,000 59 448 -64
2019-06-16 15:17:31 GMT 51.986095 22.466726 37,000 59 448 0
2019-06-16 15:17:27 GMT 51.982368 22.456682 37,000 58 449 0
2019-06-16 15:17:18 GMT 51.972336 22.429733 37,000 58 450 0
2019-06-16 15:17:15 GMT 51.968994 22.420807 37,000 58 450 -64
2019-06-16 15:17:09 GMT 51.962444 22.403399 37,000 58 451 0
2019-06-16 15:17:05 GMT 51.955276 22.384409 37,000 58 452 0
2019-06-16 15:16:58 GMT 51.950317 22.371292 37,000 58 452 64
2019-06-16 15:16:55 GMT 51.946991 22.362514 37,000 58 453 64
2019-06-16 15:16:49 GMT 51.941219 22.347212 37,000 58 452 0
2019-06-16 15:16:46 GMT 51.937271 22.336655 37,000 58 452 0
2019-06-16 15:16:43 GMT 51.933865 22.327593 37,000 58 454 -64
2019-06-16 15:16:37 GMT 51.927795 22.311478 37,000 58 454 0
2019-06-16 15:16:34 GMT 51.924088 22.301636 37,000 58 455 64
2019-06-16 15:16:28 GMT 51.918777 22.287445 37,000 58 455 64
2019-06-16 15:16:25 GMT 51.910587 22.265442 37,000 58 454 -64
2019-06-16 15:16:19 GMT 51.907982 22.258535 37,000 58 455 -128
2019-06-16 15:16:14 GMT 51.901840 22.242050 37,000 59 454 -64
2019-06-16 15:16:08 GMT 51.896622 22.227930 37,000 59 454 64
2019-06-16 15:16:05 GMT 51.893597 22.219849 37,000 59 455 0
2019-06-16 15:16:02 GMT 51.890305 22.210941 37,000 59 455 0
2019-06-16 15:15:58 GMT 51.885773 22.198692 37,000 58 456 128
2019-06-16 15:15:55 GMT 51.881260 22.186584 37,000 58 455 0
2019-06-16 15:15:52 GMT 51.878952 22.180357 37,000 58 454 0
2019-06-16 15:15:47 GMT 51.868645 22.152786 37,000 58 456 0
2019-06-16 15:15:43 GMT 51.868645 22.152786 37,000 58 456 -64
2019-06-16 15:15:40 GMT 51.863754 22.139740 37,000 58 456 -64
2019-06-16 15:15:35 GMT 51.861099 22.132626 37,000 58 456 -64
2019-06-16 15:15:32 GMT 51.856613 22.120674 37,000 58 456 0
2019-06-16 15:15:24 GMT 51.849106 22.100557 37,000 58 456 0
2019-06-16 15:15:20 GMT 51.845306 22.090387 37,000 58 455 0
2019-06-16 15:15:16 GMT 51.836102 22.065811 37,000 58 455 0
2019-06-16 15:15:13 GMT 51.836102 22.065811 37,000 58 455 0
2019-06-16 15:15:05 GMT 51.827866 22.043919 37,000 58 455 0
2019-06-16 15:14:58 GMT 51.815735 22.011702 37,000 58 455 0
2019-06-16 15:14:51 GMT 51.810150 21.996929 37,000 58 455 0
2019-06-16 15:14:42 GMT 51.802826 21.977482 37,000 58 454 0
2019-06-16 15:14:38 GMT 51.798798 21.966791 37,000 58 455 0
2019-06-16 15:14:34 GMT 51.793716 21.953505 37,000 58 455 0
2019-06-16 15:14:31 GMT 51.790329 21.944597 37,000 58 454 0
2019-06-16 15:14:28 GMT 51.786991 21.935806 37,000 58 454 0
2019-06-16 15:14:22 GMT 51.780102 21.917572 37,000 58 454 0
2019-06-16 15:14:14 GMT 51.769161 21.888733 37,000 58 454 0
2019-06-16 15:14:09 GMT 51.765930 21.880238 37,000 58 454 -64
2019-06-16 15:14:06 GMT 51.759758 21.863937 37,000 58 455 0
2019-06-16 15:14:02 GMT 51.759758 21.863937 37,000 58 454 -64
2019-06-16 15:13:59 GMT 51.755707 21.853256 37,000 58 454 0
2019-06-16 15:13:55 GMT 51.751282 21.841562 37,000 58 454 0
2019-06-16 15:13:52 GMT 51.748631 21.834488 37,000 58 454 0
2019-06-16 15:13:49 GMT 51.743958 21.822187 37,000 58 454 0
2019-06-16 15:13:45 GMT 51.739929 21.811499 37,000 58 454 0
2019-06-16 15:13:41 GMT 51.736481 21.802444 37,000 58 455 64
2019-06-16 15:13:37 GMT 51.732616 21.792374 37,000 58 455 0
2019-06-16 15:13:34 GMT 51.728394 21.781212 37,000 58 455 64
2019-06-16 15:13:31 GMT 51.725590 21.773911 36,975 58 455 0
2019-06-16 15:13:27 GMT 51.721306 21.762619 36,975 58 455 0
2019-06-16 15:13:24 GMT 51.717487 21.752548 37,000 58 455 -64
2019-06-16 15:13:21 GMT 51.714184 21.743927 37,000 58 455 -64
2019-06-16 15:13:14 GMT 51.705872 21.722198 37,000 58 455 0
2019-06-16 15:13:11 GMT 51.699799 21.706161 37,000 58 454 64
2019-06-16 15:13:05 GMT 51.696671 21.697998 37,000 58 454 64
2019-06-16 15:13:01 GMT 51.688431 21.676472 37,000 58 454 0
2019-06-16 15:12:53 GMT 51.683258 21.662960 37,000 58 454 0
2019-06-16 15:12:50 GMT 51.679920 21.654205 37,000 58 454 0
2019-06-16 15:12:47 GMT 51.671677 21.632822 37,000 58 454 0
2019-06-16 15:12:43 GMT 51.671677 21.632822 37,000 58 454 0
2019-06-16 15:12:40 GMT 51.668888 21.625443 37,000 58 454 0
2019-06-16 15:12:34 GMT 51.662521 21.608919 37,000 58 454 0
2019-06-16 15:12:31 GMT 51.658539 21.598600 37,000 58 456 -64
2019-06-16 15:12:28 GMT 51.656178 21.592407 37,000 58 456 0
2019-06-16 15:12:22 GMT 51.637894 21.544931 37,000 58 458 0
2019-06-16 15:12:16 GMT 51.637894 21.544931 37,000 58 459 0
2019-06-16 15:12:10 GMT 51.631531 21.528378 37,025 58 462 -64
2019-06-16 15:12:02 GMT 51.626759 21.515961 37,025 58 462 0
2019-06-16 15:11:59 GMT 51.623291 21.507072 37,000 58 462 0
2019-06-16 15:11:56 GMT 51.619263 21.496607 37,000 58 465 128
2019-06-16 15:11:50 GMT 51.613445 21.481552 37,000 58 463 -64
2019-06-16 15:11:47 GMT 51.604225 21.457596 37,000 58 463 0
2019-06-16 15:11:42 GMT 51.601295 21.450043 37,000 58 464 128
2019-06-16 15:11:39 GMT 51.601295 21.450043 37,000 58 464 64
2019-06-16 15:11:36 GMT 51.597664 21.440659 37,000 58 464 64
2019-06-16 15:11:29 GMT 51.590103 21.421186 37,000 58 464 0
2019-06-16 15:11:26 GMT 51.586445 21.411667 37,000 58 464 0
2019-06-16 15:11:18 GMT 51.576874 21.386967 37,000 58 464 64
2019-06-16 15:11:13 GMT 51.568893 21.366348 37,000 58 463 64
2019-06-16 15:11:08 GMT 51.564880 21.356010 37,000 58 464 0
2019-06-16 15:11:05 GMT 51.562561 21.350021 37,000 58 464 -64
2019-06-16 15:10:58 GMT 51.555267 21.331144 37,000 58 464 0
2019-06-16 15:10:54 GMT 51.550323 21.318302 37,000 58 463 0
2019-06-16 15:10:47 GMT 51.542217 21.297379 37,000 58 464 0
2019-06-16 15:10:44 GMT 51.537277 21.284748 37,000 58 464 0
2019-06-16 15:10:38 GMT 51.531883 21.270905 37,000 58 464 64
2019-06-16 15:10:34 GMT 51.526840 21.257952 37,000 58 464 0
2019-06-16 15:10:31 GMT 51.523773 21.250008 37,000 58 464 64
2019-06-16 15:10:27 GMT 51.519966 21.240311 37,000 58 464 64
2019-06-16 15:10:24 GMT 51.514847 21.227188 37,000 58 464 0
2019-06-16 15:10:18 GMT 51.508438 21.210739 37,000 57 463 64
2019-06-16 15:10:12 GMT 51.498779 21.186020 37,000 57 463 -64
2019-06-16 15:10:09 GMT 51.498779 21.186020 37,000 58 463 -64
2019-06-16 15:10:04 GMT 51.493294 21.171875 37,000 58 463 -64
2019-06-16 15:10:01 GMT 51.487381 21.156769 37,000 58 463 64
2019-06-16 15:09:54 GMT 51.480816 21.139908 37,000 58 463 64
2019-06-16 15:09:51 GMT 51.478580 21.134109 37,000 58 463 0
2019-06-16 15:09:48 GMT 51.473927 21.122131 37,000 58 464 -64
2019-06-16 15:09:43 GMT 51.469574 21.110971 37,000 57 466 -64
2019-06-16 15:09:40 GMT 51.465176 21.099701 37,000 57 466 -64
2019-06-16 15:09:36 GMT 51.460556 21.087887 37,000 57 467 -64
2019-06-16 15:09:32 GMT 51.457581 21.080315 37,000 57 468 64
2019-06-16 15:09:29 GMT 51.454010 21.071259 37,000 57 469 64
2019-06-16 15:09:25 GMT 51.448975 21.058502 37,000 57 468 64
2019-06-16 15:09:20 GMT 51.442474 21.041937 37,000 57 468 0
2019-06-16 15:09:17 GMT 51.439911 21.035479 37,000 57 468 64
2019-06-16 15:09:14 GMT 51.436478 21.026718 37,000 57 468 0
2019-06-16 15:09:09 GMT 51.430305 21.011047 37,000 57 468 -64
2019-06-16 15:09:06 GMT 51.426086 21.000366 37,000 57 468 0
2019-06-16 15:09:01 GMT 51.420410 20.986038 37,000 59 464 0
2019-06-16 15:08:58 GMT 51.417503 20.978622 37,000 57 467 0
2019-06-16 15:08:55 GMT 51.413956 20.969707 37,000 57 467 0
2019-06-16 15:08:51 GMT 51.404331 20.945358 37,000 57 468 0
2019-06-16 15:08:46 GMT 51.404331 20.945358 37,000 57 468 0
2019-06-16 15:08:43 GMT 51.400909 20.936749 37,000 57 468 0
2019-06-16 15:08:39 GMT 51.396057 20.924576 37,000 57 467 0
2019-06-16 15:08:36 GMT 51.392441 20.915520 37,000 57 467 0
2019-06-16 15:08:33 GMT 51.388458 20.905533 37,000 57 466 0
2019-06-16 15:08:30 GMT 51.386169 20.899857 37,000 57 466 0
2019-06-16 15:08:25 GMT 51.379704 20.883789 37,000 57 467 0
2019-06-16 15:08:22 GMT 51.375458 20.873207 37,000 57 466 -64
2019-06-16 15:08:19 GMT 51.371094 20.862350 37,000 57 466 0
2019-06-16 15:08:14 GMT 51.366943 20.852051 37,000 57 466 -64
2019-06-16 15:08:11 GMT 51.358063 20.830078 37,000 57 466 0
2019-06-16 15:08:07 GMT 51.358063 20.830078 37,000 57 466 64
2019-06-16 15:08:03 GMT 51.353760 20.819389 37,000 57 466 64
2019-06-16 15:07:58 GMT 51.348083 20.805285 37,000 57 466 64
2019-06-16 15:07:54 GMT 51.342133 20.790512 37,000 57 466 0
2019-06-16 15:07:51 GMT 51.339203 20.783312 37,000 57 466 0
2019-06-16 15:07:48 GMT 51.335899 20.775070 37,000 57 466 0
2019-06-16 15:07:42 GMT 51.329475 20.759201 37,000 57 466 64
2019-06-16 15:07:38 GMT 51.324680 20.747299 37,000 57 466 0
2019-06-16 15:07:35 GMT 51.319744 20.735245 37,000 57 466 0
2019-06-16 15:07:32 GMT 51.312241 20.716578 37,000 57 466 -64
2019-06-16 15:07:28 GMT 51.312241 20.716578 37,000 57 466 -64
2019-06-16 15:07:25 GMT 51.309082 20.708782 37,000 57 466 -64
2019-06-16 15:07:22 GMT 51.305546 20.699997 37,000 57 465 0
2019-06-16 15:07:19 GMT 51.301804 20.690596 37,000 57 465 0
2019-06-16 15:07:16 GMT 51.298843 20.683212 37,000 57 465 0
2019-06-16 15:07:11 GMT 51.293446 20.669632 37,000 57 465 0
2019-06-16 15:07:08 GMT 51.286972 20.653257 37,000 57 465 0
2019-06-16 15:07:02 GMT 51.281891 20.640564 37,000 57 464 0
2019-06-16 15:06:59 GMT 51.279991 20.635757 37,000 57 464 0
2019-06-16 15:06:55 GMT 51.275391 20.624084 37,000 57 465 0
2019-06-16 15:06:51 GMT 51.269192 20.608292 37,000 58 464 -64
2019-06-16 15:06:48 GMT 51.266304 20.601044 37,000 58 464 -64
2019-06-16 15:06:44 GMT 51.261154 20.587858 37,000 58 463 64
2019-06-16 15:06:39 GMT 51.256805 20.576630 37,000 58 463 128
2019-06-16 15:06:36 GMT 51.250103 20.559235 37,000 58 463 64
2019-06-16 15:06:30 GMT 51.246048 20.548592 37,000 59 464 0
2019-06-16 15:06:27 GMT 51.239548 20.531368 37,000 57 465 0
2019-06-16 15:06:24 GMT 51.239548 20.531368 37,000 55 465 64
2019-06-16 15:06:18 GMT 51.228149 20.505165 37,000 53 467 64
2019-06-16 15:06:15 GMT 51.228149 20.505165 36,975 51 468 0
2019-06-16 15:06:12 GMT 51.225712 20.500107 36,975 50 468 -64
2019-06-16 15:06:08 GMT 51.218948 20.487349 37,000 47 469 -64
2019-06-16 15:06:02 GMT 51.209656 20.471834 37,000 43 472 0
2019-06-16 15:05:56 GMT 51.199780 20.457458 37,000 38 473 -64
2019-06-16 15:05:53 GMT 51.197113 20.454168 37,000 35 474 -64
2019-06-16 15:05:50 GMT 51.192146 20.448151 37,000 34 474 0
2019-06-16 15:05:47 GMT 51.186047 20.441437 37,000 31 476 0
2019-06-16 15:05:44 GMT 51.179157 20.434647 37,000 23 477 -128
2019-06-16 15:05:40 GMT 51.172440 20.429003 37,000 25 477 64
2019-06-16 15:05:36 GMT 51.162872 20.421803 37,000 24 477 64
2019-06-16 15:05:33 GMT 51.159668 20.419500 37,000 24 477 128
2019-06-16 15:05:30 GMT 51.150528 20.412979 37,000 23 477 128
2019-06-16 15:05:25 GMT 51.142181 20.407104 37,000 23 477 0
2019-06-16 15:05:22 GMT 51.133816 20.401230 37,000 23 477 -64
2019-06-16 15:05:19 GMT 51.128860 20.397751 37,000 23 476 -192
2019-06-16 15:05:16 GMT 51.125656 20.395523 37,025 25 472 -128
2019-06-16 15:05:13 GMT 51.119431 20.391146 37,025 24 476 -192
2019-06-16 15:05:10 GMT 51.113098 20.386581 37,025 24 475 -128
2019-06-16 15:05:06 GMT 51.103592 20.379787 37,025 24 475 0
2019-06-16 15:05:03 GMT 51.083168 20.364990 37,025 24 474 0
2019-06-16 15:04:56 GMT 51.083168 20.364990 37,025 24 473 0
2019-06-16 15:04:52 GMT 51.076416 20.360031 37,025 24 473 0
2019-06-16 15:04:48 GMT 51.069214 20.354696 37,025 24 473 64
2019-06-16 15:04:45 GMT 51.061478 20.348982 37,000 25 472 -128
2019-06-16 15:04:41 GMT 51.055344 20.344454 37,025 25 472 -64
2019-06-16 15:04:37 GMT 51.047321 20.338516 37,000 22 470 128
2019-06-16 15:04:34 GMT 51.041409 20.334167 37,000 24 472 128
2019-06-16 15:04:31 GMT 51.034847 20.329437 37,000 24 472 64
2019-06-16 15:04:26 GMT 51.026047 20.323000 37,000 24 472 0
2019-06-16 15:04:22 GMT 51.011536 20.312532 37,000 24 472 128
2019-06-16 15:04:16 GMT 50.998672 20.303253 37,000 24 470 64
2019-06-16 15:04:13 GMT 50.998672 20.303253 37,000 24 470 64
2019-06-16 15:04:10 GMT 50.993683 20.299690 37,000 24 470 0
2019-06-16 15:04:06 GMT 50.982605 20.291748 37,000 24 467 0
2019-06-16 15:04:03 GMT 50.969009 20.282099 37,000 24 467 0
2019-06-16 15:03:59 GMT 50.969009 20.282099 37,025 24 466 0
2019-06-16 15:03:56 GMT 50.965073 20.279350 37,000 24 466 -64
2019-06-16 15:03:53 GMT 50.959061 20.275040 37,000 24 465 64
2019-06-16 15:03:50 GMT 50.952118 20.270073 37,000 24 465 0
2019-06-16 15:03:47 GMT 50.947887 20.267105 37,000 24 465 64
2019-06-16 15:03:44 GMT 50.941277 20.262299 37,000 24 464 128
2019-06-16 15:03:41 GMT 50.935501 20.258196 37,000 23 465 128
2019-06-16 15:03:38 GMT 50.925404 20.251160 36,975 23 465 0
2019-06-16 15:03:31 GMT 50.914856 20.243868 37,000 23 465 -128
2019-06-16 15:03:28 GMT 50.910141 20.240602 37,000 23 464 -256
2019-06-16 15:03:25 GMT 50.905106 20.237198 37,025 21 465 0
2019-06-16 15:03:20 GMT 50.893234 20.229340 37,000 22 465 64
2019-06-16 15:03:15 GMT 50.877686 20.219297 37,000 21 464 192
2019-06-16 15:03:10 GMT 50.873775 20.216827 37,000 21 464 64
2019-06-16 15:03:07 GMT 50.868530 20.213432 37,000 21 465 0
2019-06-16 15:03:04 GMT 50.851662 20.202866 37,000 21 465 -64
2019-06-16 15:02:59 GMT 50.851662 20.202866 37,000 21 465 -128
2019-06-16 15:02:55 GMT 50.845551 20.198957 37,000 22 465 0
2019-06-16 15:02:51 GMT 50.835136 20.192261 37,000 22 465 64
2019-06-16 15:02:48 GMT 50.829254 20.188492 37,000 22 465 64
2019-06-16 15:02:44 GMT 50.823486 20.184780 37,000 22 465 192
2019-06-16 15:02:40 GMT 50.815212 20.179520 37,025 23 468 -64
2019-06-16 15:02:34 GMT 50.799244 20.169373 37,000 21 468 -192
2019-06-16 15:02:31 GMT 50.793091 20.165480 37,025 22 469 -256
2019-06-16 15:02:26 GMT 50.786163 20.161057 37,025 22 469 0
2019-06-16 15:02:23 GMT 50.779366 20.156708 37,025 22 470 64
2019-06-16 15:02:18 GMT 50.770523 20.151062 37,000 22 470 64
2019-06-16 15:02:15 GMT 50.763073 20.146255 37,000 22 469 128
2019-06-16 15:02:12 GMT 50.757675 20.142670 37,000 22 469 64
2019-06-16 15:02:07 GMT 50.749107 20.136948 37,025 23 468 -64
2019-06-16 15:02:03 GMT 50.742004 20.132223 37,000 23 469 0
2019-06-16 15:02:00 GMT 50.735046 20.127546 37,000 23 469 128
2019-06-16 15:01:57 GMT 50.729645 20.123911 36,975 23 469 0
2019-06-16 15:01:54 GMT 50.722092 20.118788 36,975 23 468 -128
2019-06-16 15:01:48 GMT 50.701996 20.105276 37,000 23 468 -64
2019-06-16 15:01:44 GMT 50.701996 20.105276 37,000 23 468 -64
2019-06-16 15:01:38 GMT 50.684261 20.093155 37,000 23 467 192
2019-06-16 15:01:32 GMT 50.672203 20.084839 37,000 23 467 128
2019-06-16 15:01:29 GMT 50.672203 20.084839 37,000 23 467 128
2019-06-16 15:01:25 GMT 50.666058 20.080631 37,000 23 467 128
2019-06-16 15:01:22 GMT 50.658566 20.075436 36,975 23 469 0
2019-06-16 15:01:19 GMT 50.654606 20.072763 36,975 23 468 128
2019-06-16 15:01:15 GMT 50.635941 20.060219 36,975 23 468 0
2019-06-16 15:01:11 GMT 50.635941 20.060219 36,975 22 469 -64
2019-06-16 15:01:05 GMT 50.627140 20.054354 37,000 22 469 -192
2019-06-16 15:01:00 GMT 50.606506 20.040653 37,000 22 466 0
2019-06-16 15:00:55 GMT 50.606506 20.040653 37,000 22 468 -64
2019-06-16 15:00:51 GMT 50.598000 20.035053 37,000 22 470 0
2019-06-16 15:00:48 GMT 50.583389 20.025330 37,000 22 467 0
2019-06-16 15:00:44 GMT 50.583389 20.025330 37,000 22 468 64
2019-06-16 15:00:40 GMT 50.573513 20.018871 37,000 22 469 128
2019-06-16 15:00:34 GMT 50.563503 20.012339 37,000 22 469 64
2019-06-16 15:00:31 GMT 50.556290 20.007587 37,000 22 470 0
2019-06-16 15:00:28 GMT 50.549606 20.003139 37,000 22 470 0
2019-06-16 15:00:25 GMT 50.545395 20.000395 37,000 22 470 -64
2019-06-16 15:00:20 GMT 50.533524 19.992519 37,000 22 470 -64
2019-06-16 15:00:17 GMT 50.527752 19.988659 37,000 22 469 64
2019-06-16 15:00:12 GMT 50.510651 19.977337 37,000 22 469 64
2019-06-16 15:00:08 GMT 50.510651 19.977337 37,000 22 470 0
2019-06-16 15:00:03 GMT 50.501266 19.971121 37,000 22 469 64
2019-06-16 14:59:59 GMT 50.492558 19.965349 37,000 22 469 0
2019-06-16 14:59:56 GMT 50.486366 19.961267 37,000 22 469 -64
2019-06-16 14:59:50 GMT 50.473984 19.953102 37,000 22 469 0
2019-06-16 14:59:47 GMT 50.468399 19.949390 37,000 22 468 0
2019-06-16 14:59:44 GMT 50.463730 19.946329 37,000 22 468 -64
2019-06-16 14:59:41 GMT 50.457550 19.942209 37,000 22 468 -64
2019-06-16 14:59:38 GMT 50.450478 19.937588 37,000 22 468 0
2019-06-16 14:59:35 GMT 50.444469 19.933653 37,000 22 468 0
2019-06-16 14:59:31 GMT 50.438091 19.929497 37,000 22 469 -128
2019-06-16 14:59:28 GMT 50.431854 19.925488 37,000 22 469 -128
2019-06-16 14:59:24 GMT 50.423290 19.919920 37,000 22 469 64
2019-06-16 14:59:21 GMT 50.409927 19.911308 37,000 22 469 0
2019-06-16 14:59:18 GMT 50.409927 19.911308 37,000 22 469 -128
2019-06-16 14:59:15 GMT 50.400246 19.905001 37,000 22 469 64
2019-06-16 14:59:08 GMT 50.392136 19.899782 37,000 22 469 0
2019-06-16 14:59:05 GMT 50.386139 19.895950 37,000 22 469 0
2019-06-16 14:59:02 GMT 50.380417 19.892233 37,000 22 468 64
2019-06-16 14:58:59 GMT 50.372826 19.887333 37,000 22 468 64
2019-06-16 14:58:56 GMT 50.366634 19.883398 37,000 22 467 0
2019-06-16 14:58:52 GMT 50.358353 19.878025 37,000 22 466 0
2019-06-16 14:58:48 GMT 50.352249 19.874119 37,000 22 467 0
2019-06-16 14:58:45 GMT 50.345810 19.869860 37,000 22 467 0
2019-06-16 14:58:41 GMT 50.336750 19.864023 37,000 22 466 64
2019-06-16 14:58:37 GMT 50.331394 19.860535 37,000 22 466 0
2019-06-16 14:58:33 GMT 50.320175 19.853235 37,000 22 465 0
2019-06-16 14:58:30 GMT 50.315964 19.850559 37,000 22 465 0
2019-06-16 14:58:26 GMT 50.307220 19.844995 37,000 22 465 0
2019-06-16 14:58:23 GMT 50.303185 19.842348 37,000 22 465 -64
2019-06-16 14:58:20 GMT 50.294312 19.836683 37,000 22 465 -64
2019-06-16 14:58:17 GMT 50.291336 19.834805 37,000 22 465 0
2019-06-16 14:58:12 GMT 50.278511 19.826536 37,000 22 465 0
2019-06-16 14:58:09 GMT 50.274368 19.823938 37,000 22 465 -128
2019-06-16 14:58:05 GMT 50.266594 19.818966 37,000 28 459 64
2019-06-16 14:58:01 GMT 50.252563 19.809940 37,000 22 465 -192
2019-06-16 14:57:58 GMT 50.252563 19.809940 37,000 22 465 0
2019-06-16 14:57:55 GMT 50.246159 19.805752 37,000 22 465 0
2019-06-16 14:57:51 GMT 50.239288 19.801266 37,000 22 465 64
2019-06-16 14:57:47 GMT 50.230591 19.795555 37,000 22 464 128
2019-06-16 14:57:43 GMT 50.220520 19.788906 37,000 23 463 -64
2019-06-16 14:57:40 GMT 50.213837 19.784426 37,000 24 463 -128
2019-06-16 14:57:37 GMT 50.209122 19.781174 37,000 26 461 0
2019-06-16 14:57:30 GMT 50.196533 19.771416 37,000 27 460 64
2019-06-16 14:57:27 GMT 50.191635 19.767441 37,000 28 459 64
2019-06-16 14:57:24 GMT 50.185822 19.762596 37,000 28 459 0
2019-06-16 14:57:20 GMT 50.180099 19.757872 37,000 28 459 0
2019-06-16 14:57:17 GMT 50.172867 19.751900 37,000 28 459 64
2019-06-16 14:57:14 GMT 50.167343 19.747332 37,000 28 459 0
2019-06-16 14:57:11 GMT 50.162315 19.743174 37,000 28 458 0
2019-06-16 14:57:08 GMT 50.156616 19.738384 37,000 28 458 0
2019-06-16 14:57:05 GMT 50.150585 19.733301 37,000 28 458 0
2019-06-16 14:57:02 GMT 50.146862 19.730259 37,000 28 458 0
2019-06-16 14:56:59 GMT 50.131851 19.717785 37,000 28 456 -64
2019-06-16 14:56:55 GMT 50.131851 19.717785 37,000 28 456 -64
2019-06-16 14:56:52 GMT 50.126633 19.713448 37,000 27 456 -64
2019-06-16 14:56:48 GMT 50.113632 19.702679 37,000 28 455 64
2019-06-16 14:56:45 GMT 50.113632 19.702679 37,000 28 455 0
2019-06-16 14:56:41 GMT 50.106766 19.696968 37,000 28 455 0
2019-06-16 14:56:38 GMT 50.100914 19.692102 37,000 28 455 0
2019-06-16 14:56:34 GMT 50.094070 19.686386 36,975 28 455 -128
2019-06-16 14:56:31 GMT 50.086483 19.680077 37,000 28 455 -128
2019-06-16 14:56:27 GMT 50.081589 19.675936 37,000 28 455 -128
2019-06-16 14:56:23 GMT 50.072159 19.668056 37,000 28 455 0
2019-06-16 14:56:20 GMT 50.067535 19.664227 37,000 28 454 -64
2019-06-16 14:56:17 GMT 50.062042 19.659662 37,000 27 454 0
2019-06-16 14:56:14 GMT 50.056412 19.654976 37,000 27 456 0
2019-06-16 14:56:11 GMT 50.051010 19.650566 37,025 27 454 128
2019-06-16 14:56:08 GMT 50.046310 19.646671 37,000 27 456 0
2019-06-16 14:56:04 GMT 50.036022 19.638357 37,000 27 455 0
2019-06-16 14:56:01 GMT 50.032112 19.635166 37,000 27 455 0
2019-06-16 14:55:58 GMT 50.024849 19.629301 37,000 27 456 0
2019-06-16 14:55:54 GMT 50.017586 19.623363 37,000 27 456 0
2019-06-16 14:55:51 GMT 50.011814 19.618612 37,000 27 455 0
2019-06-16 14:55:47 GMT 50.006973 19.614677 37,000 27 455 0
2019-06-16 14:55:44 GMT 50.000828 19.609631 37,000 27 456 0
2019-06-16 14:55:41 GMT 49.992920 19.603151 37,000 27 455 0
2019-06-16 14:55:38 GMT 49.988354 19.599386 37,000 27 455 0
2019-06-16 14:55:35 GMT 49.981647 19.593893 37,000 28 455 0
2019-06-16 14:55:31 GMT 49.975132 19.588549 37,000 28 455 -64
2019-06-16 14:55:28 GMT 49.969116 19.583490 37,000 28 455 0
2019-06-16 14:55:24 GMT 49.963394 19.578720 37,000 28 460 64
2019-06-16 14:55:21 GMT 49.950256 19.567661 37,000 28 456 -64
2019-06-16 14:55:17 GMT 49.950256 19.567661 37,000 28 456 -128
2019-06-16 14:55:13 GMT 49.941513 19.560362 37,000 28 457 -128
2019-06-16 14:55:06 GMT 49.930710 19.551399 37,025 27 459 64
2019-06-16 14:55:03 GMT 49.923798 19.545761 37,000 28 459 64
2019-06-16 14:55:00 GMT 49.919083 19.541859 37,000 28 459 64
2019-06-16 14:54:57 GMT 49.913776 19.537477 37,000 28 460 64
2019-06-16 14:54:53 GMT 49.904465 19.529757 37,000 27 458 0
2019-06-16 14:54:50 GMT 49.897751 19.524151 37,000 28 461 0
2019-06-16 14:54:46 GMT 49.891476 19.518919 37,000 28 461 0
2019-06-16 14:54:43 GMT 49.884247 19.512947 37,000 28 462 64
2019-06-16 14:54:39 GMT 49.879349 19.508900 37,000 28 462 0
2019-06-16 14:54:34 GMT 49.861870 19.494572 37,000 27 459 0
2019-06-16 14:54:31 GMT 49.861870 19.494572 37,000 27 458 0
2019-06-16 14:54:28 GMT 49.858841 19.492130 37,000 27 458 0
2019-06-16 14:54:25 GMT 49.852978 19.487223 37,000 27 458 0
2019-06-16 14:54:20 GMT 49.843246 19.479279 37,000 28 455 -256
2019-06-16 14:54:17 GMT 49.839249 19.475941 37,025 28 456 -64
2019-06-16 14:54:14 GMT 49.832821 19.470669 37,000 27 457 0
2019-06-16 14:54:11 GMT 49.826488 19.465471 37,000 27 457 64
2019-06-16 14:54:08 GMT 49.814384 19.455524 37,000 28 456 0
2019-06-16 14:54:05 GMT 49.814384 19.455524 37,000 28 455 0
2019-06-16 14:54:02 GMT 49.807800 19.450066 37,000 28 456 0
2019-06-16 14:53:56 GMT 49.797485 19.441570 37,000 28 455 64
2019-06-16 14:53:50 GMT 49.787479 19.433182 36,975 28 455 0
2019-06-16 14:53:47 GMT 49.781940 19.428579 37,000 28 455 -128
2019-06-16 14:53:44 GMT 49.776489 19.424046 37,025 28 455 64
2019-06-16 14:53:41 GMT 49.770626 19.419226 37,000 28 454 64
2019-06-16 14:53:36 GMT 49.761658 19.411831 37,000 27 454 64
2019-06-16 14:53:33 GMT 49.755890 19.407131 37,000 27 454 64
2019-06-16 14:53:29 GMT 49.747192 19.399977 37,000 28 454 -128
2019-06-16 14:53:25 GMT 49.741653 19.395424 37,000 28 454 0
2019-06-16 14:53:22 GMT 49.734318 19.389385 37,000 28 454 64
2019-06-16 14:53:18 GMT 49.728218 19.384262 37,000 28 455 128
2019-06-16 14:53:14 GMT 49.719452 19.376991 37,000 28 454 -64
2019-06-16 14:53:11 GMT 49.714691 19.372944 37,000 28 453 -128
2019-06-16 14:53:06 GMT 49.706406 19.366005 37,000 28 453 -64
2019-06-16 14:53:02 GMT 49.699814 19.360294 37,000 33 450 256
2019-06-16 14:52:59 GMT 49.693768 19.354940 37,000 32 451 128
2019-06-16 14:52:56 GMT 49.687683 19.348948 36,975 36 450 192
2019-06-16 14:52:52 GMT 49.681526 19.342098 36,975 37 451 128
2019-06-16 14:52:49 GMT 49.676788 19.336588 36,975 37 451 0
2019-06-16 14:52:45 GMT 49.670334 19.328999 37,000 37 451 -128
2019-06-16 14:52:42 GMT 49.663330 19.320904 37,000 36 452 -64
2019-06-16 14:52:38 GMT 49.658524 19.315266 37,000 36 452 -64
2019-06-16 14:52:33 GMT 49.650570 19.306095 37,000 36 451 -64
2019-06-16 14:52:30 GMT 49.646240 19.301123 37,000 36 452 0
2019-06-16 14:52:27 GMT 49.641312 19.295389 37,000 36 452 -64
2019-06-16 14:52:24 GMT 49.634308 19.287294 37,025 36 452 -192
2019-06-16 14:52:21 GMT 49.625385 19.276997 37,025 36 453 -128
2019-06-16 14:52:18 GMT 49.616730 19.267128 37,000 36 455 64
2019-06-16 14:52:14 GMT 49.610439 19.259850 37,000 36 456 64
2019-06-16 14:52:10 GMT 49.610439 19.259850 37,000 36 457 128
2019-06-16 14:52:06 GMT 49.603828 19.252205 37,000 37 462 0
2019-06-16 14:52:01 GMT 49.595406 19.242331 37,000 37 462 0
2019-06-16 14:51:57 GMT 49.588608 19.234314 37,000 37 463 -64
2019-06-16 14:51:54 GMT 49.585327 19.230412 37,000 37 463 0
2019-06-16 14:51:51 GMT 49.580063 19.224195 37,000 37 463 64
2019-06-16 14:51:48 GMT 49.574158 19.217184 37,000 37 464 64
2019-06-16 14:51:44 GMT 49.562492 19.203432 37,000 37 464 -64
2019-06-16 14:51:41 GMT 49.562492 19.203432 37,000 37 465 -64
2019-06-16 14:51:38 GMT 49.556625 19.196512 37,000 37 464 0
2019-06-16 14:51:33 GMT 49.547745 19.186104 37,000 37 465 192
2019-06-16 14:51:30 GMT 49.542435 19.179888 37,000 36 465 128
2019-06-16 14:51:25 GMT 49.534981 19.171291 36,975 36 466 0
2019-06-16 14:51:22 GMT 49.529625 19.165131 37,000 36 466 0
2019-06-16 14:51:19 GMT 49.524227 19.159042 37,000 36 467 -64
2019-06-16 14:51:15 GMT 49.518871 19.152882 37,000 37 468 128
2019-06-16 14:51:11 GMT 49.509979 19.142666 37,000 37 469 0
2019-06-16 14:51:08 GMT 49.505310 19.137316 37,000 36 467 0
2019-06-16 14:51:05 GMT 49.493362 19.123486 37,000 36 467 -64
2019-06-16 14:51:01 GMT 49.493362 19.123486 37,000 36 467 0
2019-06-16 14:50:58 GMT 49.487869 19.117102 37,000 37 469 -128
2019-06-16 14:50:53 GMT 49.478439 19.106310 37,000 37 468 -64
2019-06-16 14:50:50 GMT 49.473343 19.100401 37,000 37 469 128
2019-06-16 14:50:46 GMT 49.468876 19.095129 37,000 37 469 -128
2019-06-16 14:50:41 GMT 49.455139 19.079132 37,000 37 469 -64
2019-06-16 14:50:38 GMT 49.455139 19.079132 37,000 37 469 -64
2019-06-16 14:50:35 GMT 49.450150 19.073278 37,000 37 468 64
2019-06-16 14:50:31 GMT 49.441406 19.063013 37,025 37 468 64
2019-06-16 14:50:28 GMT 49.436520 19.057198 37,000 37 468 0
2019-06-16 14:50:25 GMT 49.431610 19.051449 37,000 37 468 64
2019-06-16 14:50:22 GMT 49.427170 19.046207 37,000 37 468 64
2019-06-16 14:50:18 GMT 49.417557 19.034800 37,000 37 469 -128
2019-06-16 14:50:15 GMT 49.413200 19.029694 37,000 37 469 -128
2019-06-16 14:50:11 GMT 49.408493 19.024096 37,025 37 468 -128
2019-06-16 14:50:08 GMT 49.395172 19.008249 37,025 37 468 128
2019-06-16 14:50:04 GMT 49.386429 18.997896 37,000 37 469 256
2019-06-16 14:49:59 GMT 49.386429 18.997896 37,000 37 469 256
2019-06-16 14:49:56 GMT 49.382812 18.993671 36,975 37 469 128
2019-06-16 14:49:53 GMT 49.377029 18.986977 36,975 37 470 128
2019-06-16 14:49:48 GMT 49.361389 18.968740 36,975 37 471 0
2019-06-16 14:49:44 GMT 49.352509 18.958529 36,975 37 471 0
2019-06-16 14:49:39 GMT 49.352509 18.958529 37,000 37 471 0
2019-06-16 14:49:35 GMT 49.345734 18.950712 37,000 37 471 0
2019-06-16 14:49:31 GMT 49.332058 18.934864 37,000 36 472 -64
2019-06-16 14:49:28 GMT 49.332058 18.934864 37,000 36 472 -64
2019-06-16 14:49:24 GMT 49.327515 18.929585 37,000 36 472 -64
2019-06-16 14:49:21 GMT 49.320374 18.921415 37,000 36 472 -64
2019-06-16 14:49:18 GMT 49.315887 18.916203 37,000 37 471 64
2019-06-16 14:49:14 GMT 49.301102 18.899160 37,025 37 471 0
2019-06-16 14:49:10 GMT 49.301102 18.899160 37,000 37 471 -64
2019-06-16 14:49:06 GMT 49.295795 18.893015 37,025 37 470 -64
2019-06-16 14:49:02 GMT 49.288532 18.884630 37,025 37 470 0
2019-06-16 14:48:59 GMT 49.282295 18.877403 37,000 37 470 0
2019-06-16 14:48:55 GMT 49.275146 18.869089 37,000 37 470 64
2019-06-16 14:48:52 GMT 49.262787 18.854635 37,000 37 471 64
2019-06-16 14:48:48 GMT 49.262787 18.854635 37,000 37 472 0
2019-06-16 14:48:45 GMT 49.259342 18.850660 37,000 37 470 64
2019-06-16 14:48:41 GMT 49.250931 18.840849 37,000 37 471 0
2019-06-16 14:48:37 GMT 49.243652 18.832397 37,000 37 471 -64
2019-06-16 14:48:34 GMT 49.239418 18.827457 37,000 37 471 -64
2019-06-16 14:48:31 GMT 49.235416 18.822832 37,000 37 472 -64
2019-06-16 14:48:28 GMT 49.228477 18.814737 37,000 37 473 0
2019-06-16 14:48:23 GMT 49.218796 18.803391 37,000 37 472 0
2019-06-16 14:48:18 GMT 49.212433 18.796059 37,000 37 472 0
2019-06-16 14:48:12 GMT 49.201946 18.783875 37,000 37 472 0
2019-06-16 14:48:08 GMT 49.193665 18.774298 37,000 37 473 -64
2019-06-16 14:48:02 GMT 49.184395 18.763493 37,000 37 472 -64
2019-06-16 14:47:57 GMT 49.175503 18.753157 37,000 37 472 64
2019-06-16 14:47:54 GMT 49.168854 18.745422 37,000 37 472 64
2019-06-16 14:47:51 GMT 49.164562 18.740507 37,000 37 472 0
2019-06-16 14:47:46 GMT 49.155392 18.729811 37,000 37 472 64
2019-06-16 14:47:42 GMT 49.136856 18.708380 37,000 37 473 0
2019-06-16 14:47:34 GMT 49.136856 18.708380 37,000 37 473 0
2019-06-16 14:47:31 GMT 49.129833 18.700176 37,000 37 473 -64
2019-06-16 14:47:28 GMT 49.124577 18.694105 37,000 37 473 -64
2019-06-16 14:47:24 GMT 49.118851 18.687454 37,000 37 473 -64
2019-06-16 14:47:21 GMT 49.111027 18.678419 37,000 37 473 -64
2019-06-16 14:47:18 GMT 49.107422 18.674294 37,000 37 474 0
2019-06-16 14:47:13 GMT 49.100098 18.665842 37,000 37 473 0
2019-06-16 14:47:10 GMT 49.093758 18.658545 37,000 37 472 0
2019-06-16 14:47:07 GMT 49.088867 18.652906 37,000 37 472 0
2019-06-16 14:47:03 GMT 49.079979 18.642641 37,000 37 472 0
2019-06-16 14:46:59 GMT 49.067966 18.628838 37,000 37 472 0
2019-06-16 14:46:55 GMT 49.067966 18.628838 37,000 37 472 0
2019-06-16 14:46:52 GMT 49.061871 18.621826 37,000 37 472 0
2019-06-16 14:46:49 GMT 49.057354 18.616623 37,000 37 473 0
2019-06-16 14:46:46 GMT 49.045017 18.602383 37,000 37 472 0
2019-06-16 14:46:43 GMT 49.045017 18.602383 37,000 37 472 0
2019-06-16 14:46:39 GMT 49.038780 18.595156 37,000 37 473 64
2019-06-16 14:46:35 GMT 49.031204 18.586332 37,000 37 473 64
2019-06-16 14:46:30 GMT 49.025230 18.579399 37,000 37 473 0
2019-06-16 14:46:27 GMT 49.019577 18.572882 37,000 37 473 0
2019-06-16 14:46:19 GMT 49.004375 18.555185 37,000 37 473 -64
2019-06-16 14:46:14 GMT 48.994835 18.544127 37,000 37 472 0
2019-06-16 14:46:11 GMT 48.989990 18.538561 37,000 37 472 64
2019-06-16 14:46:08 GMT 48.986572 18.534639 37,000 37 471 0
2019-06-16 14:46:03 GMT 48.975998 18.522387 37,000 37 471 64
2019-06-16 14:46:00 GMT 48.971416 18.517021 37,000 37 471 -64
2019-06-16 14:45:57 GMT 48.967926 18.513046 37,000 37 471 0
2019-06-16 14:45:54 GMT 48.962246 18.506397 37,000 37 471 0
2019-06-16 14:45:51 GMT 48.957779 18.501122 37,000 37 471 -64
2019-06-16 14:45:47 GMT 48.949772 18.491653 37,000 39 469 -128
2019-06-16 14:45:44 GMT 48.943542 18.484003 37,025 40 468 -128
2019-06-16 14:45:36 GMT 48.931057 18.466499 37,000 47 464 0
2019-06-16 14:45:33 GMT 48.926540 18.459200 37,000 47 464 0
2019-06-16 14:45:28 GMT 48.919277 18.447273 37,000 47 464 0
2019-06-16 14:45:25 GMT 48.915649 18.441275 37,000 47 464 0
2019-06-16 14:45:22 GMT 48.910629 18.433016 37,000 47 464 0
2019-06-16 14:45:14 GMT 48.899075 18.413954 37,000 47 464 64
2019-06-16 14:45:07 GMT 48.888794 18.397099 37,000 47 465 64
2019-06-16 14:45:04 GMT 48.885670 18.391981 37,000 47 465 64
2019-06-16 14:45:01 GMT 48.870850 18.367662 37,000 47 465 64
2019-06-16 14:44:55 GMT 48.870850 18.367662 37,000 47 465 -64
2019-06-16 14:44:49 GMT 48.862976 18.354704 37,000 47 465 -64
2019-06-16 14:44:44 GMT 48.855038 18.341675 37,000 47 465 0
2019-06-16 14:44:41 GMT 48.851315 18.335531 37,000 47 466 0
2019-06-16 14:44:38 GMT 48.848473 18.330906 37,000 47 466 -64
2019-06-16 14:44:35 GMT 48.838577 18.314701 37,000 47 466 0
2019-06-16 14:44:29 GMT 48.834183 18.307520 37,000 47 466 -64
2019-06-16 14:44:22 GMT 48.822510 18.288433 37,000 47 465 0
2019-06-16 14:44:18 GMT 48.818848 18.282448 37,000 47 465 0
2019-06-16 14:44:13 GMT 48.811138 18.269901 37,000 47 466 64
2019-06-16 14:44:10 GMT 48.804993 18.259928 37,000 47 466 64
2019-06-16 14:44:07 GMT 48.802853 18.256458 37,000 47 467 0
2019-06-16 14:44:03 GMT 48.794540 18.242798 37,000 47 467 0
2019-06-16 14:44:00 GMT 48.787216 18.230825 37,000 47 467 0
2019-06-16 14:43:57 GMT 48.787216 18.230825 37,000 47 466 64
2019-06-16 14:43:54 GMT 48.783485 18.224800 37,000 47 466 64
2019-06-16 14:43:50 GMT 48.775852 18.212296 37,000 47 467 0
2019-06-16 14:43:47 GMT 48.773384 18.208248 37,000 47 467 0
2019-06-16 14:43:44 GMT 48.768124 18.199648 37,000 47 467 64
2019-06-16 14:43:41 GMT 48.762817 18.191046 37,000 47 467 0
2019-06-16 14:43:38 GMT 48.755859 18.179626 37,000 47 467 -64
2019-06-16 14:43:32 GMT 48.744942 18.161774 37,000 47 467 0
2019-06-16 14:43:29 GMT 48.744942 18.161774 37,000 47 467 0
2019-06-16 14:43:23 GMT 48.736889 18.148691 37,000 47 469 0
2019-06-16 14:43:19 GMT 48.731644 18.140047 37,000 47 468 64
2019-06-16 14:43:16 GMT 48.725739 18.130470 37,000 47 468 64
2019-06-16 14:43:12 GMT 48.719803 18.120792 37,000 47 469 -64
2019-06-16 14:43:08 GMT 48.714916 18.112913 37,000 47 469 -64
2019-06-16 14:43:05 GMT 48.711983 18.108070 37,000 47 469 -64
2019-06-16 14:42:59 GMT 48.701366 18.090796 37,000 47 471 0
2019-06-16 14:42:56 GMT 48.696945 18.083569 37,000 47 471 -64
2019-06-16 14:42:53 GMT 48.693008 18.077158 37,025 47 472 -64
2019-06-16 14:42:48 GMT 48.685730 18.065327 37,025 47 472 -64
2019-06-16 14:42:45 GMT 48.680466 18.056753 37,025 47 471 0
2019-06-16 14:42:38 GMT 48.670971 18.041285 37,025 47 473 64
2019-06-16 14:42:34 GMT 48.664265 18.030443 37,000 47 476 64
2019-06-16 14:42:31 GMT 48.660461 18.024199 37,000 47 476 64
2019-06-16 14:42:27 GMT 48.654446 18.014469 37,000 47 478 128
2019-06-16 14:42:23 GMT 48.644348 17.998140 37,000 46 478 0
2019-06-16 14:42:17 GMT 48.639221 17.989832 37,000 46 478 0
2019-06-16 14:42:13 GMT 48.633869 17.981222 37,000 46 478 0
2019-06-16 14:42:10 GMT 48.629166 17.973705 37,000 46 478 0
2019-06-16 14:42:07 GMT 48.617390 17.954697 37,000 46 478 -64
2019-06-16 14:41:59 GMT 48.612686 17.947107 37,000 46 478 0
2019-06-16 14:41:56 GMT 48.607498 17.938702 37,000 47 479 64
2019-06-16 14:41:52 GMT 48.602585 17.930773 37,000 46 478 64
2019-06-16 14:41:49 GMT 48.597977 17.923349 37,000 47 479 0
2019-06-16 14:41:46 GMT 48.591877 17.913425 37,000 47 479 0
2019-06-16 14:41:42 GMT 48.584885 17.902081 37,000 47 479 -64
2019-06-16 14:41:39 GMT 48.582321 17.897997 37,000 46 478 0
2019-06-16 14:41:36 GMT 48.577538 17.890297 37,000 46 478 0
2019-06-16 14:41:33 GMT 48.573853 17.884335 37,000 46 478 0
2019-06-16 14:41:30 GMT 48.567352 17.873840 37,000 46 478 0
2019-06-16 14:41:26 GMT 48.558964 17.860300 37,000 46 478 -64
2019-06-16 14:41:23 GMT 48.558964 17.860300 37,000 46 478 -128
2019-06-16 14:41:20 GMT 48.553024 17.850670 37,000 46 478 -128
2019-06-16 14:41:17 GMT 48.542450 17.833628 37,025 46 478 64
2019-06-16 14:41:09 GMT 48.537086 17.825027 37,000 46 478 64
2019-06-16 14:41:06 GMT 48.524422 17.804573 37,000 46 478 64
2019-06-16 14:40:57 GMT 48.517685 17.793768 37,000 46 478 0
2019-06-16 14:40:54 GMT 48.513111 17.786360 37,000 46 478 0
2019-06-16 14:40:48 GMT 48.504410 17.772358 37,000 46 478 0
2019-06-16 14:40:45 GMT 48.500519 17.766020 37,000 46 479 64
2019-06-16 14:40:42 GMT 48.497097 17.760555 37,000 46 479 64
2019-06-16 14:40:38 GMT 48.488571 17.746794 37,000 46 479 64
2019-06-16 14:40:34 GMT 48.482433 17.736921 37,000 46 479 0
2019-06-16 14:40:31 GMT 48.472008 17.720152 37,000 46 478 0
2019-06-16 14:40:26 GMT 48.464279 17.707792 37,000 46 479 0
2019-06-16 14:40:22 GMT 48.464279 17.707792 37,000 46 478 0
2019-06-16 14:40:18 GMT 48.459778 17.700665 37,000 46 478 0
2019-06-16 14:40:14 GMT 48.453430 17.690517 37,000 46 478 0
2019-06-16 14:40:11 GMT 48.449203 17.683693 37,000 46 478 0
2019-06-16 14:40:07 GMT 48.443893 17.675241 37,000 46 478 0
2019-06-16 14:40:04 GMT 48.439041 17.667496 37,000 46 478 0
2019-06-16 14:40:01 GMT 48.432953 17.657846 37,000 46 478 0
2019-06-16 14:39:58 GMT 48.428696 17.651085 37,000 46 478 0
2019-06-16 14:39:54 GMT 48.415695 17.630310 37,000 46 478 0
2019-06-16 14:39:50 GMT 48.415695 17.630310 37,000 46 477 0
2019-06-16 14:39:47 GMT 48.413490 17.626841 37,000 46 477 0
2019-06-16 14:39:43 GMT 48.407158 17.616722 37,000 46 477 0
2019-06-16 14:39:37 GMT 48.397842 17.601858 37,000 46 477 0
2019-06-16 14:39:33 GMT 48.389935 17.589184 37,000 46 477 -64
2019-06-16 14:39:30 GMT 48.385025 17.581366 37,000 46 477 -64
2019-06-16 14:39:25 GMT 48.380436 17.574005 37,000 46 477 -64
2019-06-16 14:39:22 GMT 48.375687 17.566364 37,000 46 477 -64
2019-06-16 14:39:18 GMT 48.364975 17.549252 37,000 46 477 -64
2019-06-16 14:39:15 GMT 48.356602 17.535913 37,025 46 476 0
2019-06-16 14:39:10 GMT 48.352833 17.529915 37,025 46 476 0
2019-06-16 14:39:04 GMT 48.348457 17.522903 37,025 46 476 -64
2019-06-16 14:38:59 GMT 48.340714 17.510517 37,000 46 475 320
2019-06-16 14:38:55 GMT 48.333160 17.498545 36,975 46 475 832
2019-06-16 14:38:52 GMT 48.330345 17.494137 36,950 46 476 832
2019-06-16 14:38:49 GMT 48.324341 17.484524 36,875 46 476 832
2019-06-16 14:38:45 GMT 48.319080 17.476139 34,850 46 475 768
2019-06-16 14:38:42 GMT 48.315125 17.469925 36,800 46 476 704
2019-06-16 14:38:36 GMT 48.305878 17.455162 36,750 46 476 704
2019-06-16 14:38:32 GMT 48.299240 17.444670 36,675 46 476 704
2019-06-16 14:38:27 GMT 48.292282 17.433683 36,650 46 475 704
2019-06-16 14:38:23 GMT 48.284775 17.421711 36,575 46 475 704
2019-06-16 14:38:20 GMT 48.275787 17.407476 36,450 46 474 768
2019-06-16 14:38:16 GMT 48.275787 17.407476 36,475 46 474 768
2019-06-16 14:38:13 GMT 48.271271 17.400320 36,450 46 474 768
2019-06-16 14:38:10 GMT 48.265961 17.391850 36,425 46 474 768
2019-06-16 14:38:07 GMT 48.261887 17.385370 36,375 46 474 960
2019-06-16 14:38:04 GMT 48.250977 17.368156 36,000 46 473 896
2019-06-16 14:38:00 GMT 48.250977 17.368156 36,275 46 474 832
2019-06-16 14:37:56 GMT 48.244583 17.357977 36,225 46 474 896
2019-06-16 14:37:52 GMT 48.238640 17.348570 36,175 46 474 960
2019-06-16 14:37:48 GMT 48.232864 17.339455 36,100 46 473 960
2019-06-16 14:37:44 GMT 48.226627 17.329559 36,025 46 473 960
2019-06-16 14:37:39 GMT 48.220825 17.320370 35,975 46 473 960
2019-06-16 14:37:36 GMT 48.215103 17.311354 35,900 46 473 960
2019-06-16 14:37:33 GMT 48.210617 17.304241 35,875 46 473 960
2019-06-16 14:37:30 GMT 48.204517 17.294577 35,800 46 472 960
2019-06-16 14:37:26 GMT 48.201351 17.289589 35,775 46 473 1024
2019-06-16 14:37:23 GMT 48.190155 17.271915 35,675 46 473 1024
2019-06-16 14:37:19 GMT 48.190155 17.271915 35,475 46 472 960
2019-06-16 14:37:16 GMT 48.185711 17.264942 35,600 46 473 960
2019-06-16 14:37:12 GMT 48.177563 17.252077 35,500 46 473 896
2019-06-16 14:37:09 GMT 48.174583 17.247379 35,050 46 472 960
2019-06-16 14:37:06 GMT 48.169464 17.239285 35,425 46 472 960
2019-06-16 14:37:02 GMT 48.164886 17.232056 35,325 46 472 960
2019-06-16 14:36:59 GMT 48.158112 17.221413 35,300 46 472 960
2019-06-16 14:36:54 GMT 48.153030 17.213379 35,250 46 472 960
2019-06-16 14:36:51 GMT 48.146851 17.203697 35,125 46 472 896
2019-06-16 14:36:47 GMT 48.141632 17.195389 34,850 46 472 960
2019-06-16 14:36:43 GMT 48.135666 17.185999 35,075 46 472 960
2019-06-16 14:36:40 GMT 48.131241 17.179047 35,025 46 472 960
2019-06-16 14:36:36 GMT 48.125191 17.169449 34,950 46 472 896
2019-06-16 14:36:33 GMT 48.119789 17.160927 34,875 46 473 960
2019-06-16 14:36:30 GMT 48.114811 17.153109 34,775 46 473 960
2019-06-16 14:36:27 GMT 48.107666 17.141899 34,775 46 473 960
2019-06-16 14:36:24 GMT 48.107666 17.141899 34,775 46 473 960
2019-06-16 14:36:21 GMT 48.102219 17.133385 34,700 47 473 960
2019-06-16 14:36:18 GMT 48.099308 17.128742 34,700 48 471 960
2019-06-16 14:36:15 GMT 48.093628 17.119305 34,625 49 471 960
2019-06-16 14:36:11 GMT 48.086647 17.106840 34,525 51 469 1024
2019-06-16 14:36:07 GMT 48.083862 17.101662 34,500 52 469 1024
2019-06-16 14:36:04 GMT 48.078362 17.091064 34,425 53 468 1024
2019-06-16 14:36:00 GMT 48.073284 17.080570 34,200 55 467 1024
2019-06-16 14:35:57 GMT 48.069469 17.072401 34,325 56 466 960
2019-06-16 14:35:54 GMT 48.065506 17.063416 34,250 58 465 1024
2019-06-16 14:35:51 GMT 48.062160 17.055359 34,200 59 464 1024
2019-06-16 14:35:47 GMT 48.057552 17.043810 34,025 64 460 640
2019-06-16 14:35:44 GMT 48.055454 17.038246 34,075 62 462 960
2019-06-16 14:35:38 GMT 48.049824 17.022188 34,000 66 459 192
2019-06-16 14:35:35 GMT 48.046055 17.010145 34,000 66 459 192
2019-06-16 14:35:31 GMT 48.041306 16.993595 34,000 67 458 64
2019-06-16 14:35:25 GMT 48.037998 16.981976 34,000 67 458 64
2019-06-16 14:35:20 GMT 48.034229 16.968596 34,000 67 458 -64
2019-06-16 14:35:17 GMT 48.032085 16.961060 34,000 67 458 -64
2019-06-16 14:35:13 GMT 48.028549 16.948524 34,000 67 458 -64
2019-06-16 14:35:10 GMT 48.023529 16.930687 34,000 67 458 64
2019-06-16 14:35:07 GMT 48.019180 16.915237 34,000 67 458 64
2019-06-16 14:35:02 GMT 48.019180 16.915237 34,000 67 459 0
2019-06-16 14:34:59 GMT 48.017532 16.909401 34,000 67 460 -64
2019-06-16 14:34:53 GMT 48.012211 16.890564 34,000 67 463 -64
2019-06-16 14:34:50 GMT 48.010162 16.883169 34,000 67 463 -64
2019-06-16 14:34:44 GMT 48.004341 16.862604 34,000 67 464 64
2019-06-16 14:34:40 GMT 47.999359 16.844788 34,000 67 464 -64
2019-06-16 14:34:33 GMT 47.996155 16.833252 34,000 67 465 0
2019-06-16 14:34:30 GMT 47.988602 16.806747 34,000 66 465 0
2019-06-16 14:34:25 GMT 47.988602 16.806747 34,000 66 465 0
2019-06-16 14:34:22 GMT 47.986839 16.800348 34,000 66 465 64
2019-06-16 14:34:19 GMT 47.979721 16.775436 34,000 66 465 64
2019-06-16 14:34:14 GMT 47.979721 16.775436 34,000 66 465 0
2019-06-16 14:34:11 GMT 47.977112 16.766304 34,000 67 464 0
2019-06-16 14:34:08 GMT 47.974182 16.756004 34,000 67 464 0
2019-06-16 14:34:05 GMT 47.972168 16.748932 34,000 67 464 -64
2019-06-16 14:33:59 GMT 47.967087 16.731010 34,000 67 464 0
2019-06-16 14:33:55 GMT 47.963013 16.716522 34,000 67 464 0
2019-06-16 14:33:52 GMT 47.961136 16.710068 34,000 66 465 0
2019-06-16 14:33:49 GMT 47.958572 16.700935 34,000 66 465 0
2019-06-16 14:33:44 GMT 47.954483 16.686684 34,000 66 464 0
2019-06-16 14:33:40 GMT 47.951065 16.674774 34,000 67 464 0
2019-06-16 14:33:34 GMT 47.946106 16.657457 34,000 67 464 -64
2019-06-16 14:33:31 GMT 47.943649 16.648613 34,000 67 464 -64
2019-06-16 14:33:28 GMT 47.940563 16.637878 34,000 67 464 -64
2019-06-16 14:33:22 GMT 47.936554 16.623619 34,000 67 464 0
2019-06-16 14:33:19 GMT 47.933807 16.613937 34,000 67 464 0
2019-06-16 14:33:16 GMT 47.930836 16.603512 34,000 67 464 0
2019-06-16 14:33:13 GMT 47.928772 16.596291 34,000 67 464 64
2019-06-16 14:33:10 GMT 47.923508 16.577751 34,000 67 464 64
2019-06-16 14:33:07 GMT 47.923508 16.577751 34,000 67 464 64
2019-06-16 14:33:03 GMT 47.919937 16.565117 34,000 67 464 0
2019-06-16 14:33:00 GMT 47.918243 16.559280 34,000 67 464 0
2019-06-16 14:32:53 GMT 47.912167 16.537663 34,000 67 464 -64
2019-06-16 14:32:50 GMT 47.909237 16.527382 34,000 67 463 -64
2019-06-16 14:32:47 GMT 47.907303 16.520485 34,000 67 463 64
2019-06-16 14:32:43 GMT 47.903549 16.507301 34,000 67 463 64
2019-06-16 14:32:39 GMT 47.900204 16.495407 34,000 67 463 64
2019-06-16 14:32:36 GMT 47.898514 16.489380 34,000 67 462 64
2019-06-16 14:32:32 GMT 47.895172 16.477707 34,000 67 462 0
2019-06-16 14:32:29 GMT 47.891418 16.464523 34,000 66 462 0
2019-06-16 14:32:26 GMT 47.889450 16.457661 34,000 66 461 64
2019-06-16 14:32:22 GMT 47.886612 16.447563 34,000 66 462 0
2019-06-16 14:32:19 GMT 47.883121 16.435406 34,000 67 462 -64
2019-06-16 14:32:15 GMT 47.877487 16.415546 34,000 67 462 -64
2019-06-16 14:32:12 GMT 47.877487 16.415546 34,000 66 462 0
2019-06-16 14:32:08 GMT 47.874645 16.405617 34,000 66 462 0
2019-06-16 14:32:04 GMT 47.870041 16.389559 34,000 66 462 -64
2019-06-16 14:31:59 GMT 47.867477 16.380684 34,000 66 463 -64
2019-06-16 14:31:56 GMT 47.860428 16.356102 34,000 66 463 -192
2019-06-16 14:31:51 GMT 47.860428 16.356102 34,000 66 464 -64
2019-06-16 14:31:48 GMT 47.858353 16.348925 34,025 66 464 0
2019-06-16 14:31:44 GMT 47.851418 16.324556 34,000 66 464 0
2019-06-16 14:31:41 GMT 47.851418 16.324556 34,000 66 464 -64
2019-06-16 14:31:38 GMT 47.849369 16.317514 34,000 66 464 -128
2019-06-16 14:31:34 GMT 47.845646 16.304626 34,025 66 464 -64
2019-06-16 14:31:31 GMT 47.843456 16.296881 34,000 66 463 128
2019-06-16 14:31:28 GMT 47.841293 16.289566 34,000 66 464 128
2019-06-16 14:31:25 GMT 47.838455 16.279610 34,000 66 465 0
2019-06-16 14:31:22 GMT 47.835983 16.271095 34,000 66 465 0
2019-06-16 14:31:19 GMT 47.832870 16.260246 34,000 66 465 64
2019-06-16 14:31:13 GMT 47.828838 16.246313 34,000 66 464 0
2019-06-16 14:31:10 GMT 47.825161 16.233639 34,000 66 463 0
2019-06-16 14:31:06 GMT 47.822525 16.224541 34,000 66 461 0
2019-06-16 14:31:01 GMT 47.817760 16.208075 34,000 66 460 64
2019-06-16 14:30:58 GMT 47.815063 16.198654 34,000 66 459 64
2019-06-16 14:30:54 GMT 47.812408 16.189552 34,000 66 457 -64
2019-06-16 14:30:51 GMT 47.809937 16.181076 34,000 66 455 0
2019-06-16 14:30:47 GMT 47.806309 16.168566 34,000 66 455 64
2019-06-16 14:30:43 GMT 47.802933 16.156975 34,000 66 454 64
2019-06-16 14:30:39 GMT 47.799362 16.144684 34,000 66 453 0
2019-06-16 14:30:35 GMT 47.796345 16.134268 34,000 66 454 -64
2019-06-16 14:30:31 GMT 47.793133 16.123070 34,000 66 454 -64
2019-06-16 14:30:28 GMT 47.790527 16.114197 34,000 66 454 0
2019-06-16 14:30:23 GMT 47.785545 16.097082 34,000 66 454 0
2019-06-16 14:30:20 GMT 47.783916 16.091379 34,000 66 454 64
2019-06-16 14:30:16 GMT 47.781078 16.081659 34,000 66 454 64
2019-06-16 14:30:13 GMT 47.775238 16.061462 34,000 66 455 0
2019-06-16 14:30:10 GMT 47.775238 16.061462 34,000 66 454 0
2019-06-16 14:30:06 GMT 47.772511 16.052153 34,000 66 454 -64
2019-06-16 14:30:01 GMT 47.768181 16.037151 34,000 66 454 0
2019-06-16 14:29:58 GMT 47.766037 16.029671 34,000 66 454 64
2019-06-16 14:29:54 GMT 47.759354 16.006531 34,000 66 454 64
2019-06-16 14:29:50 GMT 47.759354 16.006531 34,000 66 453 64
2019-06-16 14:29:47 GMT 47.756218 15.995812 34,000 66 453 -64
2019-06-16 14:29:44 GMT 47.754402 15.989544 34,000 66 453 -64
2019-06-16 14:29:40 GMT 47.750244 15.975082 34,000 66 453 64
2019-06-16 14:29:36 GMT 47.748211 15.968065 34,000 66 453 64
2019-06-16 14:29:32 GMT 47.744293 15.954552 34,000 66 452 0
2019-06-16 14:29:27 GMT 47.740295 15.940740 34,000 66 452 0
2019-06-16 14:29:21 GMT 47.735184 15.923172 34,000 66 453 64
2019-06-16 14:29:18 GMT 47.732758 15.914823 34,000 66 453 64
2019-06-16 14:29:15 GMT 47.730007 15.905386 34,000 66 452 -64
2019-06-16 14:29:10 GMT 47.726517 15.893484 34,000 66 452 -64
2019-06-16 14:29:07 GMT 47.723679 15.883836 34,000 66 452 -64
2019-06-16 14:29:04 GMT 47.720261 15.872017 34,000 66 452 -64
2019-06-16 14:29:00 GMT 47.717628 15.863061 34,000 66 452 0
2019-06-16 14:28:56 GMT 47.714767 15.853271 34,000 66 452 0
2019-06-16 14:28:53 GMT 47.712132 15.844327 34,000 66 452 0
2019-06-16 14:28:49 GMT 47.709000 15.833702 34,000 66 451 -128
2019-06-16 14:28:46 GMT 47.705109 15.820381 34,025 66 451 0
2019-06-16 14:28:43 GMT 47.703003 15.813309 34,000 66 450 0
2019-06-16 14:28:39 GMT 47.700310 15.804115 34,000 66 451 64
2019-06-16 14:28:36 GMT 47.698170 15.796720 34,000 66 450 128
2019-06-16 14:28:33 GMT 47.695747 15.788551 34,000 66 450 128
2019-06-16 14:28:29 GMT 47.691971 15.775681 34,000 66 450 0
2019-06-16 14:28:26 GMT 47.689041 15.765793 34,000 66 450 -64
2019-06-16 14:28:23 GMT 47.687412 15.760240 34,000 66 450 0
2019-06-16 14:28:20 GMT 47.684875 15.751648 34,000 66 450 0
2019-06-16 14:28:16 GMT 47.681534 15.740318 34,000 66 450 0
2019-06-16 14:28:13 GMT 47.678196 15.728901 34,000 66 450 0
2019-06-16 14:28:09 GMT 47.675777 15.720731 34,000 66 450 64
2019-06-16 14:28:06 GMT 47.673294 15.712372 34,000 66 450 0
2019-06-16 14:28:02 GMT 47.669956 15.700942 34,000 66 450 0
2019-06-16 14:27:59 GMT 47.666420 15.689110 34,000 66 450 0
2019-06-16 14:27:56 GMT 47.664551 15.682709 34,000 66 451 64
2019-06-16 14:27:52 GMT 47.660553 15.669321 34,000 66 451 0
2019-06-16 14:27:49 GMT 47.658550 15.662560 34,000 66 451 0
2019-06-16 14:27:46 GMT 47.655525 15.652348 34,000 66 451 -64
2019-06-16 14:27:41 GMT 47.651779 15.639725 34,000 66 451 0
2019-06-16 14:27:38 GMT 47.649445 15.631828 34,000 66 451 -64
2019-06-16 14:27:35 GMT 47.646820 15.622911 34,000 66 451 0
2019-06-16 14:27:29 GMT 47.642120 15.607065 34,000 66 451 -64
2019-06-16 14:27:25 GMT 47.637745 15.592417 34,000 66 451 -64
2019-06-16 14:27:21 GMT 47.630722 15.568863 34,000 66 451 0
2019-06-16 14:27:17 GMT 47.630722 15.568863 34,000 66 451 64
2019-06-16 14:27:14 GMT 47.626385 15.554317 34,000 66 451 0
2019-06-16 14:27:08 GMT 47.624084 15.546547 34,000 66 451 64
2019-06-16 14:27:04 GMT 47.620705 15.535091 34,000 66 451 -64
2019-06-16 14:27:00 GMT 47.617722 15.525124 34,000 66 452 0
2019-06-16 14:26:57 GMT 47.614048 15.512766 34,000 66 452 64
2019-06-16 14:26:54 GMT 47.612045 15.506172 34,000 66 452 128
2019-06-16 14:26:51 GMT 47.610306 15.500198 34,000 66 456 0
2019-06-16 14:26:48 GMT 47.606918 15.488869 34,000 66 454 0
2019-06-16 14:26:44 GMT 47.603806 15.478539 34,000 66 456 -64
2019-06-16 14:26:40 GMT 47.601059 15.469231 34,000 66 458 0
2019-06-16 14:26:37 GMT 47.597523 15.457412 34,000 66 458 -64
2019-06-16 14:26:33 GMT 47.594925 15.448700 34,000 66 458 -64
2019-06-16 14:26:30 GMT 47.592133 15.439293 34,000 66 458 0
2019-06-16 14:26:25 GMT 47.587418 15.423569 34,000 66 458 0
2019-06-16 14:26:21 GMT 47.584023 15.412269 34,000 66 459 0
2019-06-16 14:26:15 GMT 47.578529 15.393888 34,000 66 459 -64
2019-06-16 14:26:11 GMT 47.576294 15.386423 34,000 65 461 0
2019-06-16 14:26:08 GMT 47.572403 15.373375 34,000 66 460 -64
2019-06-16 14:26:03 GMT 47.569382 15.363350 34,000 66 459 0
2019-06-16 14:26:00 GMT 47.565681 15.350858 34,000 65 456 -64
2019-06-16 14:25:55 GMT 47.561371 15.336296 34,000 66 460 0
2019-06-16 14:25:51 GMT 47.558788 15.327548 34,000 66 460 0
2019-06-16 14:25:48 GMT 47.556610 15.320160 34,000 66 461 0
2019-06-16 14:25:45 GMT 47.553249 15.308814 34,000 66 461 0
2019-06-16 14:25:41 GMT 47.547958 15.291115 34,000 65 461 0
2019-06-16 14:25:35 GMT 47.543987 15.278039 34,000 66 461 0
2019-06-16 14:25:32 GMT 47.541939 15.271137 34,000 66 461 -64
2019-06-16 14:25:26 GMT 47.537704 15.256851 34,000 66 459 64
2019-06-16 14:25:23 GMT 47.535095 15.248108 34,000 66 458 64
2019-06-16 14:25:20 GMT 47.531067 15.234810 34,000 66 458 64
2019-06-16 14:25:16 GMT 47.528412 15.225952 34,000 66 458 64
2019-06-16 14:25:13 GMT 47.525940 15.217644 34,000 66 457 0
2019-06-16 14:25:10 GMT 47.523037 15.208036 34,000 66 457 64
2019-06-16 14:25:06 GMT 47.519360 15.195852 34,000 66 457 64
2019-06-16 14:25:02 GMT 47.516476 15.186134 34,000 66 456 0
2019-06-16 14:24:59 GMT 47.513542 15.176415 34,000 65 456 64
2019-06-16 14:24:55 GMT 47.510605 15.166626 34,000 65 456 64
2019-06-16 14:24:51 GMT 47.506622 15.153580 34,000 65 455 0
2019-06-16 14:24:47 GMT 47.503784 15.144241 34,000 65 456 0
2019-06-16 14:24:44 GMT 47.497433 15.123244 34,000 65 456 0
2019-06-16 14:24:41 GMT 47.497433 15.123244 34,000 66 456 -64
2019-06-16 14:24:37 GMT 47.494736 15.114230 34,000 65 456 0
2019-06-16 14:24:34 GMT 47.490143 15.099060 34,000 65 456 64
2019-06-16 14:24:31 GMT 47.487938 15.091834 34,000 65 456 0
2019-06-16 14:24:25 GMT 47.484375 15.079971 34,000 65 456 -64
2019-06-16 14:24:21 GMT 47.481537 15.070633 34,000 65 458 -64
2019-06-16 14:24:18 GMT 47.478580 15.060777 34,000 66 457 0
2019-06-16 14:24:15 GMT 47.471741 15.038155 34,000 66 457 -64
2019-06-16 14:24:10 GMT 47.471741 15.038155 34,000 66 457 -64
2019-06-16 14:24:05 GMT 47.467529 15.024216 34,000 65 457 64
2019-06-16 14:24:02 GMT 47.463963 15.012465 34,000 65 457 64
2019-06-16 14:23:59 GMT 47.462242 15.006761 34,000 65 457 128
2019-06-16 14:23:56 GMT 47.459167 14.996760 34,000 65 457 128
2019-06-16 14:23:53 GMT 47.457119 14.989929 34,000 65 457 64
2019-06-16 14:23:49 GMT 47.453720 14.978872 34,000 65 458 -128
2019-06-16 14:23:42 GMT 47.447903 14.959858 34,000 65 458 64
2019-06-16 14:23:38 GMT 47.444645 14.949012 34,000 65 458 0
2019-06-16 14:23:32 GMT 47.438278 14.928154 34,000 65 457 128
2019-06-16 14:23:27 GMT 47.433929 14.913940 34,000 65 457 0
2019-06-16 14:23:21 GMT 47.429420 14.899010 34,000 65 457 128
2019-06-16 14:23:18 GMT 47.427139 14.891686 34,000 65 457 64
2019-06-16 14:23:15 GMT 47.421043 14.871474 34,000 66 457 -64
2019-06-16 14:23:12 GMT 47.421043 14.871474 34,000 65 457 64
2019-06-16 14:23:09 GMT 47.418716 14.863798 34,000 65 457 64
2019-06-16 14:23:05 GMT 47.416077 14.855164 34,000 65 457 64
2019-06-16 14:23:02 GMT 47.409729 14.834290 34,000 65 457 0
2019-06-16 14:22:59 GMT 47.409729 14.834290 34,000 65 457 64
2019-06-16 14:22:53 GMT 47.405319 14.819939 34,000 65 458 0
2019-06-16 14:22:49 GMT 47.402000 14.809007 34,000 65 458 0
2019-06-16 14:22:46 GMT 47.399303 14.800204 34,000 65 457 0
2019-06-16 14:22:42 GMT 47.395065 14.786260 34,000 65 458 -64
2019-06-16 14:22:39 GMT 47.392971 14.779428 34,000 65 458 -64
2019-06-16 14:22:36 GMT 47.389992 14.769780 34,000 65 459 -64
2019-06-16 14:22:31 GMT 47.386414 14.758278 34,000 65 458 0
2019-06-16 14:22:28 GMT 47.383713 14.749489 34,000 65 458 0
2019-06-16 14:22:24 GMT 47.379959 14.737267 34,000 65 458 -64
2019-06-16 14:22:21 GMT 47.377235 14.728300 34,000 65 458 -64
2019-06-16 14:22:17 GMT 47.374165 14.718370 34,000 65 458 0
2019-06-16 14:22:13 GMT 47.370804 14.707397 34,000 65 458 64
2019-06-16 14:22:09 GMT 47.367325 14.696068 34,000 65 459 -128
2019-06-16 14:22:06 GMT 47.363503 14.683650 34,000 65 458 64
2019-06-16 14:22:03 GMT 47.361130 14.676044 34,000 65 459 -128
2019-06-16 14:21:58 GMT 47.356888 14.662216 34,000 65 459 -64
2019-06-16 14:21:54 GMT 47.353271 14.650612 34,000 65 458 0
2019-06-16 14:21:51 GMT 47.351532 14.644913 34,025 65 458 0
2019-06-16 14:21:48 GMT 47.348373 14.634845 34,025 65 458 0
2019-06-16 14:21:43 GMT 47.343300 14.618366 34,000 65 459 64
2019-06-16 14:21:40 GMT 47.342010 14.614288 34,000 65 458 64
2019-06-16 14:21:37 GMT 47.338852 14.604057 34,000 65 458 64
2019-06-16 14:21:34 GMT 47.336132 14.595126 34,000 65 459 64
2019-06-16 14:21:30 GMT 47.330063 14.575356 33,975 65 459 0
2019-06-16 14:21:24 GMT 47.327332 14.566744 34,000 65 459 -64
2019-06-16 14:21:21 GMT 47.324165 14.556533 34,000 65 460 -64
2019-06-16 14:21:14 GMT 47.317787 14.536039 34,000 65 460 0
2019-06-16 14:21:11 GMT 47.315460 14.528526 34,000 65 460 0
2019-06-16 14:21:08 GMT 47.312344 14.518433 34,000 65 459 64
2019-06-16 14:21:04 GMT 47.308731 14.506897 34,000 65 460 64
2019-06-16 14:21:01 GMT 47.306339 14.499066 34,000 65 460 64
2019-06-16 14:20:57 GMT 47.303356 14.489417 34,000 65 460 0
2019-06-16 14:20:52 GMT 47.298660 14.474213 34,000 65 460 -64
2019-06-16 14:20:48 GMT 47.294861 14.461990 34,000 65 460 -128
2019-06-16 14:20:43 GMT 47.291199 14.450043 34,000 65 460 128
2019-06-16 14:20:39 GMT 47.287674 14.438644 34,000 65 460 -128
2019-06-16 14:20:36 GMT 47.284515 14.428413 34,000 65 460 -128
2019-06-16 14:20:31 GMT 47.281174 14.417564 34,000 65 459 0
2019-06-16 14:20:28 GMT 47.278221 14.408076 34,000 65 459 64
2019-06-16 14:20:24 GMT 47.273659 14.393639 34,000 64 460 192
2019-06-16 14:20:21 GMT 47.270782 14.384743 34,000 64 460 128
2019-06-16 14:20:17 GMT 47.267979 14.375822 34,000 65 460 0
2019-06-16 14:20:14 GMT 47.265060 14.366615 33,975 65 461 -128
2019-06-16 14:20:10 GMT 47.261974 14.356807 34,000 65 460 64
2019-06-16 14:20:07 GMT 47.259132 14.347722 34,000 65 460 0
2019-06-16 14:20:04 GMT 47.256760 14.340046 34,000 65 460 -192
2019-06-16 14:20:01 GMT 47.254578 14.333038 34,000 65 460 0
2019-06-16 14:19:57 GMT 47.250687 14.320541 34,000 65 460 64
2019-06-16 14:19:54 GMT 47.247849 14.311478 34,000 65 460 192
2019-06-16 14:19:51 GMT 47.244888 14.301946 34,000 65 460 128
2019-06-16 14:19:47 GMT 47.241760 14.291908 34,000 65 460 -64
2019-06-16 14:19:44 GMT 47.238232 14.280325 34,000 65 461 -192
2019-06-16 14:19:38 GMT 47.233154 14.263687 34,000 65 461 0
2019-06-16 14:19:35 GMT 47.231342 14.257859 34,025 65 460 64
2019-06-16 14:19:32 GMT 47.229248 14.250958 34,000 65 460 64
2019-06-16 14:19:28 GMT 47.225189 14.237732 34,000 65 460 64
2019-06-16 14:19:25 GMT 47.222404 14.228774 34,000 65 461 0
2019-06-16 14:19:22 GMT 47.214489 14.203069 34,000 65 462 -128
2019-06-16 14:19:16 GMT 47.214489 14.203069 34,000 65 465 64
2019-06-16 14:19:12 GMT 47.210495 14.190010 34,000 65 464 0
2019-06-16 14:19:07 GMT 47.207108 14.178818 34,000 65 465 64
2019-06-16 14:19:04 GMT 47.200851 14.158560 34,000 65 467 64
2019-06-16 14:19:00 GMT 47.200851 14.158560 34,000 65 465 0
2019-06-16 14:18:57 GMT 47.195541 14.141306 34,000 65 466 64
2019-06-16 14:18:50 GMT 47.190903 14.126221 34,000 65 467 -128
2019-06-16 14:18:45 GMT 47.186234 14.111093 34,000 65 469 -64
2019-06-16 14:18:40 GMT 47.183392 14.101868 34,000 65 467 -128
2019-06-16 14:18:36 GMT 47.178635 14.086464 34,000 65 467 -128
2019-06-16 14:18:33 GMT 47.176037 14.077923 34,000 65 467 64
2019-06-16 14:18:30 GMT 47.173737 14.070534 34,000 65 467 64
2019-06-16 14:18:26 GMT 47.169708 14.057429 34,000 65 468 64
2019-06-16 14:18:22 GMT 47.166000 14.045403 34,000 65 469 0
2019-06-16 14:18:19 GMT 47.163700 14.038062 34,000 65 470 0
2019-06-16 14:18:16 GMT 47.161049 14.029400 34,000 65 469 -64
2019-06-16 14:18:11 GMT 47.156342 14.014160 34,000 65 469 64
2019-06-16 14:18:08 GMT 47.154465 14.008118 34,000 65 469 64
2019-06-16 14:18:04 GMT 47.150665 13.995807 34,000 65 469 0
2019-06-16 14:18:01 GMT 47.145035 13.977699 34,000 65 470 0
2019-06-16 14:17:58 GMT 47.139030 13.958482 34,000 65 470 0
2019-06-16 14:17:52 GMT 47.139030 13.958482 34,000 65 469 -64
2019-06-16 14:17:49 GMT 47.136517 13.950313 34,000 65 469 0
2019-06-16 14:17:46 GMT 47.135117 13.945665 34,000 65 470 0
2019-06-16 14:17:42 GMT 47.131535 13.934115 34,000 65 469 0
2019-06-16 14:17:36 GMT 47.125626 13.915146 34,000 65 470 0
2019-06-16 14:17:33 GMT 47.122547 13.905100 34,000 65 471 128
2019-06-16 14:17:30 GMT 47.119011 13.893761 34,000 65 471 128
2019-06-16 14:17:24 GMT 47.109375 13.862892 34,000 65 472 0
2019-06-16 14:17:18 GMT 47.109375 13.862892 34,000 65 473 0
2019-06-16 14:17:14 GMT 47.102673 13.841224 34,000 65 473 64
2019-06-16 14:17:11 GMT 47.102673 13.841224 34,000 65 472 0
2019-06-16 14:17:08 GMT 47.100296 13.833618 34,000 65 473 64
2019-06-16 14:17:05 GMT 47.096619 13.821716 34,000 65 473 64
2019-06-16 14:17:00 GMT 47.092197 13.807420 34,000 65 473 0
2019-06-16 14:16:56 GMT 47.089638 13.799251 34,000 65 473 0
2019-06-16 14:16:52 GMT 47.085800 13.786880 34,000 65 473 128
2019-06-16 14:16:48 GMT 47.081303 13.772489 34,000 65 473 128
2019-06-16 14:16:45 GMT 47.076042 13.755587 34,000 65 473 128
2019-06-16 14:16:41 GMT 47.076042 13.755587 34,000 65 473 64
2019-06-16 14:16:38 GMT 47.069916 13.735863 34,000 65 473 -64
2019-06-16 14:16:31 GMT 47.066574 13.725082 34,000 65 473 -64
2019-06-16 14:16:28 GMT 47.063461 13.715195 34,000 65 473 -64
2019-06-16 14:16:23 GMT 47.059517 13.702486 34,000 65 473 64
2019-06-16 14:16:19 GMT 47.055698 13.690232 34,000 65 473 64
2019-06-16 14:16:15 GMT 47.052254 13.679176 34,000 65 473 -128
2019-06-16 14:16:12 GMT 47.049229 13.669598 34,000 65 473 -128
2019-06-16 14:16:09 GMT 47.047321 13.663471 34,025 65 472 0
2019-06-16 14:16:03 GMT 47.037323 13.631699 34,000 65 472 128
2019-06-16 14:15:59 GMT 47.037323 13.631699 34,000 65 472 64
2019-06-16 14:15:54 GMT 47.029770 13.607765 34,000 65 473 64
2019-06-16 14:15:50 GMT 47.029770 13.607765 34,000 65 473 0
2019-06-16 14:15:47 GMT 47.026836 13.598468 34,000 65 473 0
2019-06-16 14:15:40 GMT 47.019112 13.573749 34,000 65 473 0
2019-06-16 14:15:37 GMT 47.017685 13.569283 34,000 65 473 0
2019-06-16 14:15:33 GMT 47.013802 13.556918 34,000 65 473 0
2019-06-16 14:15:30 GMT 47.010406 13.546143 34,000 65 473 0
2019-06-16 14:15:27 GMT 47.007240 13.536001 34,000 65 473 0
2019-06-16 14:15:22 GMT 47.003952 13.525681 34,000 65 473 64
2019-06-16 14:15:18 GMT 47.000443 13.514522 34,000 65 473 64
2019-06-16 14:15:15 GMT 46.997360 13.504807 34,000 65 473 64
2019-06-16 14:15:11 GMT 46.993973 13.494026 34,000 65 473 0
2019-06-16 14:15:08 GMT 46.990200 13.481985 34,000 65 473 -64
2019-06-16 14:15:01 GMT 46.984707 13.464590 34,000 65 473 -64
2019-06-16 14:14:58 GMT 46.981915 13.455857 34,000 65 473 -64
2019-06-16 14:14:55 GMT 46.979141 13.446991 34,000 65 471 64
2019-06-16 14:14:50 GMT 46.974197 13.431335 34,000 65 472 0
2019-06-16 14:14:46 GMT 46.970463 13.419659 34,000 65 472 0
2019-06-16 14:14:40 GMT 46.965317 13.403320 34,000 65 471 0
2019-06-16 14:14:34 GMT 46.958817 13.382790 34,000 65 471 0
2019-06-16 14:14:29 GMT 46.955795 13.373245 34,000 65 471 64
2019-06-16 14:14:26 GMT 46.952122 13.361558 34,000 65 471 64
2019-06-16 14:14:23 GMT 46.950165 13.355324 34,000 65 471 64
2019-06-16 14:14:18 GMT 46.944904 13.338740 34,000 65 471 -64
2019-06-16 14:14:15 GMT 46.942200 13.330261 34,000 65 471 0
2019-06-16 14:14:12 GMT 46.936108 13.311063 34,000 65 471 0
2019-06-16 14:14:08 GMT 46.936108 13.311063 34,000 65 471 0
2019-06-16 14:14:04 GMT 46.932289 13.298950 34,000 65 472 0
2019-06-16 14:14:01 GMT 46.928558 13.287277 34,000 64 468 -64
2019-06-16 14:13:56 GMT 46.924747 13.275287 34,000 65 470 0
2019-06-16 14:13:52 GMT 46.921967 13.266541 34,000 65 470 0
2019-06-16 14:13:45 GMT 46.915192 13.245186 34,000 65 471 0
2019-06-16 14:13:42 GMT 46.911896 13.234818 34,000 65 471 -64
2019-06-16 14:13:38 GMT 46.907990 13.222609 34,000 64 469 64
2019-06-16 14:13:34 GMT 46.904873 13.212820 34,000 64 470 64
2019-06-16 14:13:31 GMT 46.902145 13.204399 34,000 64 470 128
2019-06-16 14:13:23 GMT 46.894775 13.181396 34,000 65 471 0
2019-06-16 14:13:20 GMT 46.888298 13.161128 34,000 65 471 0
2019-06-16 14:13:16 GMT 46.888298 13.161128 34,000 65 471 -64
2019-06-16 14:13:11 GMT 46.884155 13.148170 34,000 65 471 0
2019-06-16 14:13:06 GMT 46.878288 13.129789 34,000 65 471 -64
2019-06-16 14:13:00 GMT 46.873959 13.116267 34,000 64 469 64
2019-06-16 14:12:54 GMT 46.868561 13.099365 34,000 64 470 0
2019-06-16 14:12:51 GMT 46.864792 13.087601 34,000 64 469 0
2019-06-16 14:12:39 GMT 46.854355 13.055107 34,000 64 469 64
2019-06-16 14:12:29 GMT 46.844879 13.025632 34,000 64 469 -64
2019-06-16 14:12:26 GMT 46.841995 13.016722 34,000 64 469 -64
2019-06-16 14:12:21 GMT 46.837509 13.002721 34,000 64 469 -64
2019-06-16 14:12:17 GMT 46.833321 12.989685 34,000 258 291 1920
2019-06-16 14:12:14 GMT 46.830505 12.981017 34,000 64 469 -64
2019-06-16 14:12:07 GMT 46.824287 12.961739 34,000 64 469 64
2019-06-16 14:12:03 GMT 46.821304 12.952412 34,000 258 291 1920
2019-06-16 14:11:59 GMT 46.816933 12.938805 34,000 64 469 -64
2019-06-16 14:11:55 GMT 46.814236 12.930565 34,000 64 469 -64
2019-06-16 14:11:52 GMT 46.810555 12.919098 34,000 64 469 -64
2019-06-16 14:11:47 GMT 46.806747 12.907261 34,000 64 468 0
2019-06-16 14:11:43 GMT 46.802921 12.895409 34,000 64 468 -64
2019-06-16 14:11:36 GMT 46.796219 12.874704 34,000 64 468 0
2019-06-16 14:11:32 GMT 46.792213 12.862312 34,000 64 468 -64
2019-06-16 14:11:26 GMT 46.786743 12.845362 34,000 64 468 64
2019-06-16 14:11:23 GMT 46.784019 12.836906 34,000 64 468 64
2019-06-16 14:11:20 GMT 46.782028 12.830758 34,000 64 469 0
2019-06-16 14:11:16 GMT 46.777039 12.815351 34,000 64 469 -64
2019-06-16 14:11:12 GMT 46.773731 12.805252 34,000 64 469 -64
2019-06-16 14:11:07 GMT 46.770081 12.793981 34,000 64 468 -64
2019-06-16 14:11:03 GMT 46.765541 12.779846 34,000 64 468 0
2019-06-16 14:10:58 GMT 46.761475 12.767453 34,000 64 469 64
2019-06-16 14:10:52 GMT 46.755157 12.747917 34,000 64 469 0
2019-06-16 14:10:49 GMT 46.752594 12.740054 34,000 64 469 -64
2019-06-16 14:10:42 GMT 46.746368 12.720962 34,000 64 469 -64
2019-06-16 14:10:39 GMT 46.740681 12.703423 34,000 64 469 0
2019-06-16 14:10:33 GMT 46.737610 12.694084 34,000 64 469 0
2019-06-16 14:10:29 GMT 46.734257 12.683784 34,000 64 469 64
2019-06-16 14:10:26 GMT 46.730999 12.673828 34,000 64 469 0
2019-06-16 14:10:22 GMT 46.728149 12.665160 34,000 64 470 64
2019-06-16 14:10:18 GMT 46.721035 12.643272 34,000 64 470 0
2019-06-16 14:10:15 GMT 46.721035 12.643272 34,000 64 471 64
2019-06-16 14:10:12 GMT 46.717941 12.633741 34,000 64 470 0
2019-06-16 14:10:06 GMT 46.712631 12.617463 34,000 63 470 0
2019-06-16 14:10:01 GMT 46.708187 12.603859 34,000 62 471 0
2019-06-16 14:09:56 GMT 46.703159 12.589508 34,000 61 471 0
2019-06-16 14:09:51 GMT 46.697525 12.574321 34,000 61 471 0
2019-06-16 14:09:43 GMT 46.686821 12.545563 34,000 61 471 0
2019-06-16 14:09:40 GMT 46.686821 12.545563 34,000 61 471 0
2019-06-16 14:09:32 GMT 46.678020 12.521873 34,000 61 470 0
2019-06-16 14:09:29 GMT 46.674454 12.512289 34,000 61 470 0
2019-06-16 14:09:24 GMT 46.670013 12.500365 34,000 61 471 64
2019-06-16 14:09:20 GMT 46.664749 12.486163 34,000 61 471 64
2019-06-16 14:09:17 GMT 46.663219 12.482117 34,000 61 471 -64
2019-06-16 14:09:10 GMT 46.654495 12.458563 34,000 61 471 -64
2019-06-16 14:09:06 GMT 46.650833 12.448677 34,000 61 472 -64
2019-06-16 14:09:00 GMT 46.644596 12.431923 34,000 61 471 -64
2019-06-16 14:08:56 GMT 46.641037 12.422322 34,000 61 471 -64
2019-06-16 14:08:51 GMT 46.634960 12.406036 34,000 61 472 0
2019-06-16 14:08:47 GMT 46.629547 12.391439 34,000 61 471 64
2019-06-16 14:08:41 GMT 46.625046 12.379326 34,000 61 472 -64
2019-06-16 14:08:37 GMT 46.618111 12.360649 34,000 61 472 0
2019-06-16 14:08:29 GMT 46.613251 12.347695 34,000 61 472 0
2019-06-16 14:08:26 GMT 46.610706 12.340874 34,000 61 472 0
2019-06-16 14:08:23 GMT 46.606796 12.330412 34,000 61 472 -64
2019-06-16 14:08:17 GMT 46.600418 12.313271 34,000 61 472 0
2019-06-16 14:08:14 GMT 46.597717 12.306061 34,000 61 472 0
2019-06-16 14:08:11 GMT 46.594975 12.298851 34,000 61 472 64
2019-06-16 14:08:08 GMT 46.591248 12.288826 34,000 61 472 64
2019-06-16 14:08:04 GMT 46.586197 12.275346 34,000 61 472 64
2019-06-16 14:08:00 GMT 46.583588 12.268379 34,000 61 472 0
2019-06-16 14:07:57 GMT 46.579285 12.256991 34,000 61 472 -64
2019-06-16 14:07:53 GMT 46.572674 12.239525 34,000 61 472 -64
2019-06-16 14:07:50 GMT 46.572674 12.239525 34,000 61 472 0
2019-06-16 14:07:47 GMT 46.569351 12.230597 34,000 61 472 0
2019-06-16 14:07:41 GMT 46.563812 12.215926 34,000 61 472 0
2019-06-16 14:07:38 GMT 46.559265 12.203819 34,000 61 472 0
2019-06-16 14:07:33 GMT 46.554565 12.191322 34,000 61 472 0
2019-06-16 14:07:30 GMT 46.552284 12.185211 34,000 61 472 0
2019-06-16 14:07:26 GMT 46.547955 12.173813 34,000 61 473 0
2019-06-16 14:07:23 GMT 46.541336 12.156238 34,000 61 473 0
2019-06-16 14:07:20 GMT 46.541336 12.156238 34,000 61 473 0
2019-06-16 14:07:13 GMT 46.533691 12.135940 34,000 61 473 0
2019-06-16 14:07:09 GMT 46.524212 12.110779 34,000 61 473 0
2019-06-16 14:07:04 GMT 46.524212 12.110779 34,000 61 473 0
2019-06-16 14:07:01 GMT 46.518082 12.094540 34,000 61 473 0
2019-06-16 14:06:55 GMT 46.514854 12.086128 34,000 61 473 0
2019-06-16 14:06:52 GMT 46.511597 12.077477 34,000 61 473 0
2019-06-16 14:06:48 GMT 46.506569 12.064156 34,000 61 474 0
2019-06-16 14:06:42 GMT 46.501373 12.050394 34,000 61 473 0
2019-06-16 14:06:38 GMT 46.496979 12.038887 34,000 61 473 0
2019-06-16 14:06:35 GMT 46.493683 12.030163 34,000 61 473 -64
2019-06-16 14:06:32 GMT 46.490295 12.021254 34,000 61 473 0
2019-06-16 14:06:26 GMT 46.484783 12.006683 34,000 61 473 0
2019-06-16 14:06:20 GMT 46.478870 11.991165 34,000 61 473 0
2019-06-16 14:06:15 GMT 46.472355 11.973930 34,000 61 473 0
2019-06-16 14:06:12 GMT 46.469971 11.967729 34,000 61 472 0
2019-06-16 14:06:09 GMT 46.466766 11.959236 34,000 61 472 0
2019-06-16 14:06:05 GMT 46.459831 11.940971 34,000 61 472 0
2019-06-16 14:05:58 GMT 46.454224 11.926195 34,000 61 472 0
2019-06-16 14:05:55 GMT 46.452530 11.921707 34,000 61 472 0
2019-06-16 14:05:52 GMT 46.448822 11.912060 34,000 61 472 0
2019-06-16 14:05:49 GMT 46.445572 11.903486 34,000 61 472 0
2019-06-16 14:05:46 GMT 46.441490 11.892838 34,000 61 472 0
2019-06-16 14:05:41 GMT 46.436882 11.880615 34,000 61 472 0
2019-06-16 14:05:38 GMT 46.433945 11.873005 34,000 61 472 0
2019-06-16 14:05:35 GMT 46.430374 11.863627 34,000 61 472 0
2019-06-16 14:05:32 GMT 46.427898 11.857132 34,000 61 472 0
2019-06-16 14:05:29 GMT 46.424965 11.849373 34,000 61 472 0
2019-06-16 14:05:26 GMT 46.421658 11.840790 34,000 61 472 -64
2019-06-16 14:05:22 GMT 46.416817 11.828087 34,000 61 472 0
2019-06-16 14:05:18 GMT 46.412952 11.817856 34,000 61 472 0
2019-06-16 14:05:15 GMT 46.409500 11.808896 34,000 61 472 0
2019-06-16 14:05:12 GMT 46.406296 11.800415 34,000 61 472 0
2019-06-16 14:05:08 GMT 46.401875 11.788811 34,000 61 472 64
2019-06-16 14:05:04 GMT 46.398567 11.780296 34,000 61 472 64
2019-06-16 14:05:01 GMT 46.394852 11.770444 34,000 61 472 64
2019-06-16 14:04:58 GMT 46.392376 11.763954 34,000 61 472 0
2019-06-16 14:04:55 GMT 46.384975 11.744659 34,000 61 472 0
2019-06-16 14:04:52 GMT 46.384975 11.744659 34,000 61 472 0
2019-06-16 14:04:48 GMT 46.381760 11.736212 34,000 61 473 0
2019-06-16 14:04:44 GMT 46.377480 11.725021 34,000 61 472 0
2019-06-16 14:04:41 GMT 46.374313 11.716782 34,000 61 472 0
2019-06-16 14:04:38 GMT 46.370682 11.707205 34,000 60 472 0
2019-06-16 14:04:33 GMT 46.364540 11.691101 34,000 61 472 0
2019-06-16 14:04:30 GMT 46.362259 11.685166 34,000 61 472 0
2019-06-16 14:04:27 GMT 46.359009 11.676591 34,000 60 472 0
2019-06-16 14:04:24 GMT 46.355484 11.667480 34,000 60 472 0
2019-06-16 14:04:21 GMT 46.352737 11.660313 34,000 60 471 0
2019-06-16 14:04:17 GMT 46.348434 11.649058 34,000 60 472 0
2019-06-16 14:04:11 GMT 46.341431 11.630904 34,000 60 471 0
2019-06-16 14:04:08 GMT 46.338425 11.623055 34,000 60 471 64
2019-06-16 14:04:04 GMT 46.333675 11.610695 34,000 60 471 0
2019-06-16 14:04:00 GMT 46.330444 11.602299 34,000 60 471 0
2019-06-16 14:03:57 GMT 46.327240 11.594060 34,000 60 471 0
2019-06-16 14:03:49 GMT 46.319153 11.572998 34,000 60 471 64
2019-06-16 14:03:45 GMT 46.314468 11.560833 34,000 60 471 0
2019-06-16 14:03:39 GMT 46.307419 11.542580 34,000 60 471 64
2019-06-16 14:03:36 GMT 46.304951 11.536263 34,000 60 471 0
2019-06-16 14:03:32 GMT 46.300716 11.525276 34,000 60 471 0
2019-06-16 14:03:26 GMT 46.294281 11.508648 34,000 60 471 64
2019-06-16 14:03:23 GMT 46.291763 11.502083 34,000 60 471 64
2019-06-16 14:03:19 GMT 46.287048 11.490024 34,000 60 471 64
2019-06-16 14:03:16 GMT 46.281097 11.474684 34,000 60 472 0
2019-06-16 14:03:13 GMT 46.281097 11.474684 34,000 60 472 0
2019-06-16 14:03:08 GMT 46.275467 11.460147 34,000 60 472 0
2019-06-16 14:03:05 GMT 46.272171 11.451639 34,000 60 471 0
2019-06-16 14:03:00 GMT 46.267105 11.438553 34,000 60 471 0
2019-06-16 14:02:57 GMT 46.264160 11.431006 34,000 60 472 -64
2019-06-16 14:02:53 GMT 46.260040 11.420288 34,000 60 472 -64
2019-06-16 14:02:50 GMT 46.256424 11.410977 34,000 60 472 -64
2019-06-16 14:02:46 GMT 46.250977 11.396909 34,000 60 472 -64
2019-06-16 14:02:43 GMT 46.247910 11.388937 34,000 60 472 0
2019-06-16 14:02:39 GMT 46.239853 11.368103 34,000 60 472 0
2019-06-16 14:02:34 GMT 46.239853 11.368103 34,000 60 472 0
2019-06-16 14:02:31 GMT 46.236195 11.358627 34,000 60 472 0
2019-06-16 14:02:28 GMT 46.227219 11.335345 34,000 60 472 64
2019-06-16 14:02:24 GMT 46.227219 11.335345 34,000 60 472 64
2019-06-16 14:02:21 GMT 46.224472 11.328244 34,000 60 472 64
2019-06-16 14:02:18 GMT 46.222229 11.322483 34,025 60 472 0
2019-06-16 14:02:15 GMT 46.214813 11.303190 34,000 60 473 0
2019-06-16 14:02:11 GMT 46.214813 11.303190 34,000 60 473 0
2019-06-16 14:02:07 GMT 46.206680 11.282135 34,025 60 473 -64
2019-06-16 14:02:04 GMT 46.206680 11.282135 34,000 60 473 -64
2019-06-16 14:01:59 GMT 46.201172 11.267953 34,000 60 473 -64
2019-06-16 14:01:56 GMT 46.198906 11.262085 34,025 60 472 -64
2019-06-16 14:01:52 GMT 46.194111 11.249725 34,000 60 470 -64
2019-06-16 14:01:49 GMT 46.191319 11.242584 34,000 55 466 1024
2019-06-16 14:01:45 GMT 46.187500 11.232765 34,025 60 465 0
2019-06-16 14:01:42 GMT 46.184242 11.224319 34,025 60 466 0
2019-06-16 14:01:37 GMT 46.178143 11.208595 34,025 60 466 64
2019-06-16 14:01:34 GMT 46.175400 11.201432 34,000 60 465 0
2019-06-16 14:01:31 GMT 46.172791 11.194666 34,000 60 465 0
2019-06-16 14:01:27 GMT 46.168808 11.184350 34,000 60 465 0
2019-06-16 14:01:24 GMT 46.164597 11.173565 34,000 60 466 0
2019-06-16 14:01:21 GMT 46.161850 11.166367 34,000 60 466 0
2019-06-16 14:01:18 GMT 46.158737 11.158425 34,000 60 466 -64
2019-06-16 14:01:13 GMT 46.153843 11.145836 34,000 60 466 -128
2019-06-16 14:01:09 GMT 46.148987 11.133639 34,000 58 466 320
2019-06-16 14:01:03 GMT 46.142487 11.118439 33,950 55 464 768
2019-06-16 14:01:00 GMT 46.139236 11.111398 33,925 55 465 832
2019-06-16 14:00:55 GMT 46.132942 11.098251 33,875 55 465 832
2019-06-16 14:00:51 GMT 46.126423 11.084862 33,825 55 465 896
2019-06-16 14:00:47 GMT 46.118500 11.068458 33,675 55 466 1024
2019-06-16 14:00:43 GMT 46.118500 11.068458 33,675 55 466 960
2019-06-16 14:00:40 GMT 46.114197 11.059615 33,625 55 466 1024
2019-06-16 14:00:33 GMT 46.100510 11.031479 33,450 54 465 1024
2019-06-16 14:00:29 GMT 46.100510 11.031479 33,400 54 465 960
2019-06-16 14:00:23 GMT 46.093735 11.017545 33,350 54 465 960
2019-06-16 14:00:20 GMT 46.088390 11.006516 33,300 54 465 960
2019-06-16 14:00:17 GMT 46.086018 11.001778 33,250 55 463 1024
2019-06-16 14:00:11 GMT 46.078491 10.986194 33,150 55 463 1088
2019-06-16 14:00:08 GMT 46.069885 10.968576 32,975 54 463 1216
2019-06-16 14:00:01 GMT 46.066681 10.962078 32,875 54 463 1216
2019-06-16 13:59:58 GMT 46.063438 10.955360 32,775 54 463 1216
2019-06-16 13:59:55 GMT 46.059036 10.946469 32,800 54 463 1152
2019-06-16 13:59:51 GMT 46.053268 10.934612 32,725 54 462 1152
2019-06-16 13:59:47 GMT 46.047565 10.922951 32,675 54 462 1152
2019-06-16 13:59:43 GMT 46.045097 10.917938 32,600 54 462 1216
2019-06-16 13:59:40 GMT 46.039536 10.906543 32,500 54 461 1280
2019-06-16 13:59:36 GMT 46.035004 10.897232 32,425 54 462 1280
2019-06-16 13:59:33 GMT 46.031971 10.891090 32,400 54 461 1280
2019-06-16 13:59:29 GMT 46.027828 10.882576 32,300 54 461 1344
2019-06-16 13:59:26 GMT 46.022053 10.870834 32,200 54 460 1344
2019-06-16 13:59:22 GMT 46.018433 10.863402 32,175 54 460 1344
2019-06-16 13:59:17 GMT 46.013256 10.852776 32,050 54 460 1344
2019-06-16 13:59:14 GMT 46.005112 10.836204 31,900 54 460 1344
2019-06-16 13:59:07 GMT 46.000443 10.826691 31,775 54 460 1280
2019-06-16 13:59:03 GMT 45.994446 10.814499 31,675 54 460 1216
2019-06-16 13:59:00 GMT 45.987625 10.800498 31,550 54 459 1280
2019-06-16 13:58:57 GMT 45.987625 10.800498 31,525 54 459 1280
2019-06-16 13:58:53 GMT 45.982361 10.789780 31,500 54 459 1344
2019-06-16 13:58:50 GMT 45.979065 10.783014 31,350 54 459 1344
2019-06-16 13:58:47 GMT 45.975403 10.775578 31,375 54 459 1344
2019-06-16 13:58:41 GMT 45.968948 10.762314 31,225 54 459 1344
2019-06-16 13:58:38 GMT 45.965214 10.754723 31,200 54 459 1344
2019-06-16 13:58:35 GMT 45.961678 10.747513 31,150 54 458 1344
2019-06-16 13:58:32 GMT 45.956131 10.736188 31,000 54 458 1408
2019-06-16 13:58:28 GMT 45.951874 10.727547 30,950 54 458 1408
2019-06-16 13:58:25 GMT 45.948875 10.721420 30,800 54 458 1344
2019-06-16 13:58:21 GMT 45.944595 10.712608 30,750 54 458 1280
2019-06-16 13:58:17 GMT 45.939144 10.701576 30,675 54 458 1280
2019-06-16 13:58:14 GMT 45.936081 10.695257 30,650 54 457 1280
2019-06-16 13:58:10 GMT 45.930763 10.684479 30,475 54 456 1280
2019-06-16 13:58:06 GMT 45.926468 10.675696 30,400 54 456 1280
2019-06-16 13:58:03 GMT 45.922714 10.667993 30,400 54 456 1280
2019-06-16 13:57:57 GMT 45.914703 10.651647 30,250 54 455 1344
2019-06-16 13:57:54 GMT 45.911087 10.644211 29,975 55 455 1344
2019-06-16 13:57:49 GMT 45.904976 10.631744 30,050 55 455 1344
2019-06-16 13:57:46 GMT 45.900787 10.623161 30,000 55 455 1344
2019-06-16 13:57:43 GMT 45.891850 10.604897 29,700 54 454 1216
2019-06-16 13:57:38 GMT 45.891850 10.604897 29,850 54 454 1216
2019-06-16 13:57:35 GMT 45.888218 10.597481 29,800 54 454 1216
2019-06-16 13:57:32 GMT 45.880737 10.582112 29,650 54 453 1216
2019-06-16 13:57:25 GMT 45.875366 10.571182 29,575 54 453 1280
2019-06-16 13:57:22 GMT 45.871353 10.562953 29,500 55 452 1280
2019-06-16 13:57:19 GMT 45.868835 10.557794 29,450 55 452 1280
2019-06-16 13:57:14 GMT 45.858078 10.535755 29,300 55 450 1280
2019-06-16 13:57:10 GMT 45.858078 10.535755 29,250 55 450 1280
2019-06-16 13:57:04 GMT 45.850834 10.520988 29,150 54 449 1280
2019-06-16 13:56:59 GMT 45.845108 10.509315 29,025 54 448 1344
2019-06-16 13:56:54 GMT 45.838623 10.496164 28,825 55 446 1344
2019-06-16 13:56:50 GMT 45.831375 10.481232 28,475 60 445 1344
2019-06-16 13:56:43 GMT 45.826767 10.470726 28,650 60 445 1344
2019-06-16 13:56:39 GMT 45.822998 10.461250 28,600 62 444 1344
2019-06-16 13:56:35 GMT 45.819077 10.450343 28,475 66 444 1408
2019-06-16 13:56:32 GMT 45.816284 10.441835 28,425 66 444 1408
2019-06-16 13:56:29 GMT 45.813812 10.433729 28,350 68 444 1344
2019-06-16 13:56:25 GMT 45.810894 10.423210 28,225 72 443 1152
2019-06-16 13:56:22 GMT 45.808147 10.411812 28,150 73 443 1024
2019-06-16 13:56:18 GMT 45.806396 10.403517 28,125 75 442 896
2019-06-16 13:56:14 GMT 45.804283 10.392036 27,975 78 440 832
2019-06-16 13:56:09 GMT 45.802139 10.377927 28,025 80 439 896
2019-06-16 13:56:05 GMT 45.800838 10.366631 27,900 83 438 1024
2019-06-16 13:56:00 GMT 45.799721 10.352486 27,850 85 437 1280
2019-06-16 13:55:56 GMT 45.798981 10.340546 27,750 85 437 1600
2019-06-16 13:55:51 GMT 45.798019 10.323598 27,525 85 438 2304
2019-06-16 13:55:45 GMT 45.797150 10.308592 27,075 85 439 2368
2019-06-16 13:55:41 GMT 45.796326 10.295328 27,050 85 439 2368
2019-06-16 13:55:36 GMT 45.795593 10.282533 26,725 85 440 2368
2019-06-16 13:55:33 GMT 45.795113 10.274277 26,725 85 441 2368
2019-06-16 13:55:29 GMT 45.794449 10.263709 26,550 85 443 2368
2019-06-16 13:55:26 GMT 45.793762 10.251718 26,550 85 442 2432
2019-06-16 13:55:21 GMT 45.792526 10.230750 26,325 85 443 2368
2019-06-16 13:55:14 GMT 45.791855 10.219482 26,125 85 444 2368
2019-06-16 13:55:11 GMT 45.791336 10.210854 25,950 85 444 2368
2019-06-16 13:55:07 GMT 45.790558 10.198528 25,825 85 445 2432
2019-06-16 13:55:01 GMT 45.789478 10.180206 25,575 84 446 2432
2019-06-16 13:54:57 GMT 45.788818 10.169454 25,475 85 447 2432
2019-06-16 13:54:54 GMT 45.788036 10.156311 25,250 85 448 2432
2019-06-16 13:54:51 GMT 45.787582 10.149424 25,075 85 448 2432
2019-06-16 13:54:48 GMT 45.787197 10.142441 24,825 85 451 2496
2019-06-16 13:54:44 GMT 45.786407 10.129120 24,900 85 450 2496
2019-06-16 13:54:41 GMT 45.785801 10.119644 24,675 85 451 2496
2019-06-16 13:54:38 GMT 45.785339 10.112111 24,200 85 451 2432
2019-06-16 13:54:35 GMT 45.784790 10.102599 24,425 85 451 2432
2019-06-16 13:54:32 GMT 45.783939 10.088470 24,300 85 452 2368
2019-06-16 13:54:28 GMT 45.782913 10.071046 24,075 85 452 2304
2019-06-16 13:54:24 GMT 45.782913 10.071046 24,075 85 452 2304
2019-06-16 13:54:20 GMT 45.782032 10.056335 23,900 85 452 2240
2019-06-16 13:54:17 GMT 45.781586 10.049275 23,825 85 452 2048
2019-06-16 13:54:12 GMT 45.780716 10.034135 23,675 85 452 1728
2019-06-16 13:54:07 GMT 45.779800 10.019263 23,575 85 451 1536
2019-06-16 13:54:01 GMT 45.778725 10.001610 23,350 85 448 1472
2019-06-16 13:53:57 GMT 45.778061 9.989922 23,275 85 447 1472
2019-06-16 13:53:54 GMT 45.777512 9.981079 23,250 85 447 1472
2019-06-16 13:53:51 GMT 45.777004 9.972359 23,125 85 446 1472
2019-06-16 13:53:48 GMT 45.776459 9.963126 23,050 85 446 1472
2019-06-16 13:53:44 GMT 45.775280 9.943314 22,950 85 445 1472
2019-06-16 13:53:41 GMT 45.775280 9.943314 22,900 85 445 1472
2019-06-16 13:53:38 GMT 45.774815 9.935143 22,800 85 444 1536
2019-06-16 13:53:35 GMT 45.774261 9.926147 22,750 85 444 1536
2019-06-16 13:53:31 GMT 45.772888 9.902835 22,625 85 443 1472
2019-06-16 13:53:28 GMT 45.772888 9.902835 22,375 85 441 1472
2019-06-16 13:53:23 GMT 45.772202 9.891447 22,450 85 440 1472
2019-06-16 13:53:20 GMT 45.771648 9.882339 22,375 85 440 1472
2019-06-16 13:53:17 GMT 45.771103 9.873493 22,200 85 439 1536
2019-06-16 13:53:14 GMT 45.770580 9.864899 22,200 85 439 1536
2019-06-16 13:53:11 GMT 45.769833 9.852745 22,100 85 438 1728
2019-06-16 13:53:07 GMT 45.769417 9.845879 22,025 85 437 1920
2019-06-16 13:53:04 GMT 45.768814 9.836180 21,925 85 436 1920
2019-06-16 13:53:00 GMT 45.768036 9.823854 21,775 84 435 1856
2019-06-16 13:52:56 GMT 45.767349 9.812667 21,650 84 432 1856
2019-06-16 13:52:52 GMT 45.766800 9.803221 21,575 84 433 1792
2019-06-16 13:52:49 GMT 45.766251 9.794518 21,425 84 432 1856
2019-06-16 13:52:46 GMT 45.765038 9.774879 21,225 84 431 1984
2019-06-16 13:52:43 GMT 45.765038 9.774879 21,225 84 426 2176
2019-06-16 13:52:38 GMT 45.763783 9.755035 21,025 84 429 1984
2019-06-16 13:52:34 GMT 45.763550 9.751053 20,925 84 428 1984
2019-06-16 13:52:31 GMT 45.763000 9.742193 20,875 84 428 1920
2019-06-16 13:52:25 GMT 45.761261 9.714326 20,625 84 426 2112
2019-06-16 13:52:18 GMT 45.760757 9.706756 20,425 84 425 2176
2019-06-16 13:52:15 GMT 45.760025 9.695033 20,325 84 424 2112
2019-06-16 13:52:12 GMT 45.759567 9.687999 20,125 84 422 2176
2019-06-16 13:52:09 GMT 45.758194 9.666026 19,925 84 421 2176
2019-06-16 13:52:04 GMT 45.758194 9.666026 19,925 84 421 2176
2019-06-16 13:51:59 GMT 45.757313 9.652245 19,525 84 419 2176
2019-06-16 13:51:53 GMT 45.756332 9.636520 19,525 84 419 2176
2019-06-16 13:51:50 GMT 45.755722 9.626971 19,025 84 414 2048
2019-06-16 13:51:47 GMT 45.755264 9.620339 18,700 84 417 2176
2019-06-16 13:51:43 GMT 45.754333 9.605690 19,125 84 416 2240
2019-06-16 13:51:36 GMT 45.753296 9.589658 18,925 84 414 2112
2019-06-16 13:51:32 GMT 45.752518 9.577469 18,750 84 413 2048
2019-06-16 13:51:27 GMT 45.751556 9.562393 18,550 84 411 2240
2019-06-16 13:51:23 GMT 45.750935 9.552750 18,375 84 410 2368
2019-06-16 13:51:20 GMT 45.750561 9.547325 18,350 84 410 2304
2019-06-16 13:51:16 GMT 45.749771 9.534622 18,175 84 409 2240
2019-06-16 13:51:13 GMT 45.749222 9.526151 18,050 84 408 2240
2019-06-16 13:51:10 GMT 45.748699 9.517937 17,925 84 407 2176
2019-06-16 13:51:06 GMT 45.747986 9.507126 17,800 84 406 2112
2019-06-16 13:51:02 GMT 45.747345 9.497212 17,650 84 403 2560
2019-06-16 13:50:59 GMT 45.746796 9.488436 17,525 84 404 2432
2019-06-16 13:50:55 GMT 45.746155 9.479124 17,375 84 403 2496
2019-06-16 13:50:52 GMT 45.745533 9.469185 17,225 84 402 2560
2019-06-16 13:50:47 GMT 45.744370 9.451126 16,875 84 401 2752
2019-06-16 13:50:41 GMT 45.743683 9.440471 16,725 84 401 2688
2019-06-16 13:50:36 GMT 45.742741 9.426064 16,500 84 400 2432
2019-06-16 13:50:33 GMT 45.742355 9.420173 16,375 84 399 2432
2019-06-16 13:50:30 GMT 45.741764 9.410820 16,275 84 398 2560
2019-06-16 13:50:25 GMT 45.740982 9.398871 16,025 84 397 2432
2019-06-16 13:50:22 GMT 45.740414 9.390633 15,950 84 396 2368
2019-06-16 13:50:19 GMT 45.739857 9.382324 15,825 84 395 2240
2019-06-16 13:50:12 GMT 45.738556 9.362160 15,525 84 393 2560
2019-06-16 13:50:08 GMT 45.737946 9.353554 15,375 84 392 2752
2019-06-16 13:50:03 GMT 45.737045 9.339719 15,125 84 390 2368
2019-06-16 13:50:00 GMT 45.736645 9.333710 15,025 84 390 2432
2019-06-16 13:49:56 GMT 45.735340 9.314209 14,825 84 385 2240
2019-06-16 13:49:52 GMT 45.735340 9.314209 14,700 84 385 2240
2019-06-16 13:49:49 GMT 45.734802 9.306492 14,625 84 384 2432
2019-06-16 13:49:45 GMT 45.734116 9.296108 14,400 84 382 2752
2019-06-16 13:49:42 GMT 45.733566 9.288538 14,275 84 382 2496
2019-06-16 13:49:39 GMT 45.732918 9.278847 14,175 84 381 2240
2019-06-16 13:49:28 GMT 45.730087 9.238966 13,525 84 374 2624
2019-06-16 13:49:21 GMT 45.729797 9.234901 13,450 84 373 2688
2019-06-16 13:49:16 GMT 45.729034 9.224027 13,250 83 373 2752
2019-06-16 13:49:12 GMT 45.728302 9.213979 13,100 83 372 2816
2019-06-16 13:49:09 GMT 45.727890 9.208084 12,675 83 366 2432
2019-06-16 13:49:05 GMT 45.727158 9.198370 12,750 83 370 2688
2019-06-16 13:49:00 GMT 45.726059 9.183565 12,525 83 368 2496
2019-06-16 13:48:52 GMT 45.724869 9.167488 12,100 84 362 2688
2019-06-16 13:48:49 GMT 45.724121 9.157104 12,025 84 362 2688
2019-06-16 13:48:46 GMT 45.723701 9.151337 11,900 84 361 2688
2019-06-16 13:48:42 GMT 45.723095 9.142548 11,725 84 359 2752
2019-06-16 13:48:38 GMT 45.722351 9.132251 11,325 84 357 2944
2019-06-16 13:48:35 GMT 45.721931 9.126549 11,425 84 357 2880
2019-06-16 13:48:30 GMT 45.720886 9.110882 11,075 84 355 3072
2019-06-16 13:48:27 GMT 45.720676 9.107735 11,025 84 355 3072
2019-06-16 13:48:24 GMT 45.720257 9.101212 10,875 84 355 3072
2019-06-16 13:48:20 GMT 45.719326 9.087204 10,600 84 353 2752
2019-06-16 13:48:17 GMT 45.718998 9.082329 10,475 84 352 2880
2019-06-16 13:48:14 GMT 45.718597 9.076181 10,375 84 351 2944
2019-06-16 13:48:08 GMT 45.717556 9.060356 10,075 84 346 2176
2019-06-16 13:48:04 GMT 45.716999 9.052391 9,975 84 343 1344
2019-06-16 13:48:00 GMT 45.716492 9.045098 9,900 84 337 1280
2019-06-16 13:47:53 GMT 45.715275 9.027534 9,750 84 327 960
2019-06-16 13:47:48 GMT 45.714569 9.017498 9,675 83 267 2368
2019-06-16 13:47:45 GMT 45.713974 9.009258 9,600 84 315 960
2019-06-16 13:47:42 GMT 45.713600 9.003983 9,600 84 315 960
2019-06-16 13:47:37 GMT 45.713058 8.996731 9,350 84 299 1024
2019-06-16 13:47:33 GMT 45.712097 8.982931 9,375 84 298 960
2019-06-16 13:47:30 GMT 45.712017 8.982079 9,375 84 296 896
2019-06-16 13:47:19 GMT 45.710587 8.960489 9,100 84 280 2240
2019-06-16 13:47:09 GMT 45.709084 8.938751 8,600 83 272 2432
2019-06-16 13:47:00 GMT 45.707611 8.920430 8,225 86 264 2496
2019-06-16 13:46:46 GMT 45.708481 8.902744 7,975 106 253 832
2019-06-16 13:46:37 GMT 45.712528 8.887733 7,675 121 244 2880
2019-06-16 13:46:28 GMT 45.717880 8.875580 6,825 122 241 2624
2019-06-16 13:46:25 GMT 45.719421 8.872130 7,125 119 240 2432
2019-06-16 13:46:22 GMT 45.721207 8.867910 7,025 115 238 2304
2019-06-16 13:46:17 GMT 45.723236 8.860817 6,825 93 234 2112
2019-06-16 13:46:14 GMT 45.724136 8.855784 6,700 96 235 2176
2019-06-16 13:46:11 GMT 45.724400 8.848732 6,575 84 231 1472
2019-06-16 13:46:08 GMT 45.724304 8.846329 6,525 77 227 1280
2019-06-16 13:46:02 GMT 45.723175 8.838635 6,400 68 222 1728
2019-06-16 13:45:58 GMT 45.721329 8.832321 6,225 45 217 2624
2019-06-16 13:45:51 GMT 45.717648 8.825043 5,975 45 217 2624
2019-06-16 13:45:47 GMT 45.714436 8.820648 5,750 40 214 3008
2019-06-16 13:45:40 GMT 45.709129 8.814262 5,400 39 214 2752
2019-06-16 13:45:37 GMT 45.706924 8.811705 5,275 38 214 2688
2019-06-16 13:45:30 GMT 45.701775 8.805954 4,925 36 213 2880
2019-06-16 13:45:27 GMT 45.699074 8.803070 4,825 36 211 2880
2019-06-16 13:45:24 GMT 45.697037 8.800987 4,700 50 202 1280
2019-06-16 13:45:20 GMT 45.693211 8.796753 4,475 48 203 1408
2019-06-16 13:45:17 GMT 45.691544 8.794556 4,450 48 203 1408
2019-06-16 13:45:08 GMT 45.686554 8.785579 4,250 60 193 1280
2019-06-16 13:45:03 GMT 45.682434 8.772650 3,825 72 189 2624
2019-06-16 13:44:56 GMT 45.682114 8.771310 3,750 71 190 2176
2019-06-16 13:44:47 GMT 45.675659 8.744843 3,225 70 191 2880
2019-06-16 13:44:35 GMT 45.675659 8.744843 2,875 64 193 2432

Making use of Plane Finder data

You are free to use the raw flight data, aircraft information and images provided in this report for your own purposes provided the data is correctly attributed to Plane Finder. We ask that you please credit Plane Finder and link to planefinder.net in close proximity to the content.

Optionally one of the following logos (no smaller then 150x24px) can be used and must link to planefinder.net

Embedding the Plane Finder map

You are welcome to embed the Plane Finder playback map on your website to offer visitors a more interactive experience. We suggest using the following HTML code:

<iframe src="//planefinder.net/data/report/SU2613-VP-BMI-7700-squawk-2019-06-16/map" width="800" height="600" seamless="seamless"></iframe>

Where our data comes from

Plane Finder has a global network of data feeds and antenna radars that receive data broadcast directly from aircraft. The primary technologies used are ADS-B and MLAT. We also show feeds from the FAA and a FLARM glider feed.

Click here to find out more about the Plane Finder network.

How we collect our data